<?xml version="1.0" encoding="UTF-8"?>
<gpx version="1.1" creator="Super Dem App" xmlns:xsi="http://www.w3.org/2001/XMLSchema-instance" xmlns="http://www.topografix.com/GPX/1/1" xmlns:kashmir3d="http://www.kashmir3d.com/namespace/kashmir3d" xsi:schemaLocation="http://www.topografix.com/GPX/1/1 http://www.topografix.com/GPX/1/1/gpx.xsd http://www.kashmir3d.com/namespace/kashmir3d http://www.kashmir3d.com/namespace/kashmir3d.xsd">
<trk>
<name><![CDATA[tokura_tatsuyamacho_tenryuku_202407]]></name>
<number>1</number>
<extensions>
<kashmir3d:cmt><![CDATA[浜松市天竜区龍山町戸倉 戸倉谷2024.7月]]></kashmir3d:cmt>
<kashmir3d:line_color>FF0000</kashmir3d:line_color>
<kashmir3d:line_size>4</kashmir3d:line_size>
<kashmir3d:line_style>1</kashmir3d:line_style>
<kashmir3d:icon>901001</kashmir3d:icon>
<kashmir3d:rate>0</kashmir3d:rate>
</extensions>
<trkseg>
<trkpt lat="34.970525" lon="137.855989">
<ele>602.440000</ele>
<time>2024-07-19T07:04:37Z</time>
<extensions>
<kashmir3d:speed>-9999.00</kashmir3d:speed>
</extensions>
</trkpt>
<trkpt lat="34.970516" lon="137.855979">
<ele>600.570000</ele>
<time>2024-07-19T07:04:42Z</time>
<extensions>
<kashmir3d:speed>0.32</kashmir3d:speed>
</extensions>
</trkpt>
<trkpt lat="34.970445" lon="137.855910">
<ele>600.940000</ele>
<time>2024-07-19T07:04:51Z</time>
<extensions>
<kashmir3d:speed>1.11</kashmir3d:speed>
</extensions>
</trkpt>
<trkpt lat="34.970375" lon="137.855840">
<ele>600.230000</ele>
<time>2024-07-19T07:05:00Z</time>
<extensions>
<kashmir3d:speed>1.11</kashmir3d:speed>
</extensions>
</trkpt>
<trkpt lat="34.970305" lon="137.855770">
<ele>599.180000</ele>
<time>2024-07-19T07:05:09Z</time>
<extensions>
<kashmir3d:speed>1.11</kashmir3d:speed>
</extensions>
</trkpt>
<trkpt lat="34.970234" lon="137.855701">
<ele>598.790000</ele>
<time>2024-07-19T07:05:18Z</time>
<extensions>
<kashmir3d:speed>1.11</kashmir3d:speed>
</extensions>
</trkpt>
<trkpt lat="34.970164" lon="137.855631">
<ele>599.250000</ele>
<time>2024-07-19T07:05:27Z</time>
<extensions>
<kashmir3d:speed>1.11</kashmir3d:speed>
</extensions>
</trkpt>
<trkpt lat="34.970094" lon="137.855562">
<ele>598.850000</ele>
<time>2024-07-19T07:05:37Z</time>
<extensions>
<kashmir3d:speed>1.04</kashmir3d:speed>
</extensions>
</trkpt>
<trkpt lat="34.970023" lon="137.855492">
<ele>596.030000</ele>
<time>2024-07-19T07:06:01Z</time>
<extensions>
<kashmir3d:speed>0.41</kashmir3d:speed>
</extensions>
</trkpt>
<trkpt lat="34.969953" lon="137.855423">
<ele>595.030000</ele>
<time>2024-07-19T07:06:11Z</time>
<extensions>
<kashmir3d:speed>0.94</kashmir3d:speed>
</extensions>
</trkpt>
<trkpt lat="34.969883" lon="137.855353">
<ele>592.300000</ele>
<time>2024-07-19T07:06:35Z</time>
<extensions>
<kashmir3d:speed>0.42</kashmir3d:speed>
</extensions>
</trkpt>
<trkpt lat="34.969877" lon="137.855348">
<ele>592.300000</ele>
<time>2024-07-19T07:06:36Z</time>
<extensions>
<kashmir3d:speed>1.11</kashmir3d:speed>
</extensions>
</trkpt>
<trkpt lat="34.969877" lon="137.855348">
<ele>592.300000</ele>
<time>2024-07-19T07:06:36Z</time>
<extensions>
<kashmir3d:speed>0.00</kashmir3d:speed>
</extensions>
</trkpt>
<trkpt lat="34.969865" lon="137.855330">
<ele>592.300000</ele>
<time>2024-07-19T07:06:38Z</time>
<extensions>
<kashmir3d:speed>1.11</kashmir3d:speed>
</extensions>
</trkpt>
<trkpt lat="34.969805" lon="137.855244">
<ele>589.440000</ele>
<time>2024-07-19T07:07:03Z</time>
<extensions>
<kashmir3d:speed>0.42</kashmir3d:speed>
</extensions>
</trkpt>
<trkpt lat="34.969793" lon="137.855227">
<ele>584.660000</ele>
<time>2024-07-19T07:07:47Z</time>
<extensions>
<kashmir3d:speed>0.04</kashmir3d:speed>
</extensions>
</trkpt>
<trkpt lat="34.969793" lon="137.855227">
<ele>584.660000</ele>
<time>2024-07-19T07:07:47Z</time>
<extensions>
<kashmir3d:speed>0.00</kashmir3d:speed>
</extensions>
</trkpt>
<trkpt lat="34.969796" lon="137.855158">
<ele>584.660000</ele>
<time>2024-07-19T07:07:53Z</time>
<extensions>
<kashmir3d:speed>1.11</kashmir3d:speed>
</extensions>
</trkpt>
<trkpt lat="34.969798" lon="137.855106">
<ele>579.280000</ele>
<time>2024-07-19T07:08:26Z</time>
<extensions>
<kashmir3d:speed>0.14</kashmir3d:speed>
</extensions>
</trkpt>
<trkpt lat="34.969798" lon="137.855106">
<ele>579.280000</ele>
<time>2024-07-19T07:08:26Z</time>
<extensions>
<kashmir3d:speed>0.00</kashmir3d:speed>
</extensions>
</trkpt>
<trkpt lat="34.969828" lon="137.855072">
<ele>579.410000</ele>
<time>2024-07-19T07:08:31Z</time>
<extensions>
<kashmir3d:speed>0.95</kashmir3d:speed>
</extensions>
</trkpt>
<trkpt lat="34.969904" lon="137.854986">
<ele>574.280000</ele>
<time>2024-07-19T07:09:09Z</time>
<extensions>
<kashmir3d:speed>0.30</kashmir3d:speed>
</extensions>
</trkpt>
<trkpt lat="34.969925" lon="137.854963">
<ele>567.880000</ele>
<time>2024-07-19T07:09:47Z</time>
<extensions>
<kashmir3d:speed>0.08</kashmir3d:speed>
</extensions>
</trkpt>
<trkpt lat="34.969925" lon="137.854963">
<ele>567.880000</ele>
<time>2024-07-19T07:09:47Z</time>
<extensions>
<kashmir3d:speed>0.00</kashmir3d:speed>
</extensions>
</trkpt>
<trkpt lat="34.969953" lon="137.854951">
<ele>567.880000</ele>
<time>2024-07-19T07:09:50Z</time>
<extensions>
<kashmir3d:speed>1.11</kashmir3d:speed>
</extensions>
</trkpt>
<trkpt lat="34.970023" lon="137.854920">
<ele>568.840000</ele>
<time>2024-07-19T07:09:57Z</time>
<extensions>
<kashmir3d:speed>1.11</kashmir3d:speed>
</extensions>
</trkpt>
<trkpt lat="34.970094" lon="137.854889">
<ele>564.570000</ele>
<time>2024-07-19T07:10:28Z</time>
<extensions>
<kashmir3d:speed>0.27</kashmir3d:speed>
</extensions>
</trkpt>
<trkpt lat="34.970164" lon="137.854858">
<ele>565.540000</ele>
<time>2024-07-19T07:10:35Z</time>
<extensions>
<kashmir3d:speed>1.11</kashmir3d:speed>
</extensions>
</trkpt>
<trkpt lat="34.970171" lon="137.854855">
<ele>566.370000</ele>
<time>2024-07-19T07:10:40Z</time>
<extensions>
<kashmir3d:speed>0.17</kashmir3d:speed>
</extensions>
</trkpt>
<trkpt lat="34.970171" lon="137.854855">
<ele>566.370000</ele>
<time>2024-07-19T07:10:40Z</time>
<extensions>
<kashmir3d:speed>0.00</kashmir3d:speed>
</extensions>
</trkpt>
<trkpt lat="34.970252" lon="137.854815">
<ele>567.820000</ele>
<time>2024-07-19T07:10:57Z</time>
<extensions>
<kashmir3d:speed>0.58</kashmir3d:speed>
</extensions>
</trkpt>
<trkpt lat="34.970297" lon="137.854792">
<ele>562.230000</ele>
<time>2024-07-19T07:11:32Z</time>
<extensions>
<kashmir3d:speed>0.15</kashmir3d:speed>
</extensions>
</trkpt>
<trkpt lat="34.970297" lon="137.854792">
<ele>562.230000</ele>
<time>2024-07-19T07:11:32Z</time>
<extensions>
<kashmir3d:speed>0.00</kashmir3d:speed>
</extensions>
</trkpt>
<trkpt lat="34.970348" lon="137.854729">
<ele>563.740000</ele>
<time>2024-07-19T07:11:47Z</time>
<extensions>
<kashmir3d:speed>0.52</kashmir3d:speed>
</extensions>
</trkpt>
<trkpt lat="34.970369" lon="137.854702">
<ele>558.710000</ele>
<time>2024-07-19T07:12:36Z</time>
<extensions>
<kashmir3d:speed>0.07</kashmir3d:speed>
</extensions>
</trkpt>
<trkpt lat="34.970369" lon="137.854702">
<ele>558.710000</ele>
<time>2024-07-19T07:12:36Z</time>
<extensions>
<kashmir3d:speed>0.00</kashmir3d:speed>
</extensions>
</trkpt>
<trkpt lat="34.970360" lon="137.854643">
<ele>558.710000</ele>
<time>2024-07-19T07:12:41Z</time>
<extensions>
<kashmir3d:speed>1.11</kashmir3d:speed>
</extensions>
</trkpt>
<trkpt lat="34.970357" lon="137.854626">
<ele>553.530000</ele>
<time>2024-07-19T07:13:10Z</time>
<extensions>
<kashmir3d:speed>0.05</kashmir3d:speed>
</extensions>
</trkpt>
<trkpt lat="34.970357" lon="137.854626">
<ele>553.530000</ele>
<time>2024-07-19T07:13:10Z</time>
<extensions>
<kashmir3d:speed>0.00</kashmir3d:speed>
</extensions>
</trkpt>
<trkpt lat="34.970312" lon="137.854557">
<ele>553.530000</ele>
<time>2024-07-19T07:13:17Z</time>
<extensions>
<kashmir3d:speed>1.11</kashmir3d:speed>
</extensions>
</trkpt>
<trkpt lat="34.970287" lon="137.854520">
<ele>547.180000</ele>
<time>2024-07-19T07:13:55Z</time>
<extensions>
<kashmir3d:speed>0.11</kashmir3d:speed>
</extensions>
</trkpt>
<trkpt lat="34.970287" lon="137.854520">
<ele>547.180000</ele>
<time>2024-07-19T07:13:55Z</time>
<extensions>
<kashmir3d:speed>0.00</kashmir3d:speed>
</extensions>
</trkpt>
<trkpt lat="34.970234" lon="137.854519">
<ele>545.820000</ele>
<time>2024-07-19T07:14:03Z</time>
<extensions>
<kashmir3d:speed>0.78</kashmir3d:speed>
</extensions>
</trkpt>
<trkpt lat="34.970164" lon="137.854517">
<ele>544.590000</ele>
<time>2024-07-19T07:14:12Z</time>
<extensions>
<kashmir3d:speed>0.87</kashmir3d:speed>
</extensions>
</trkpt>
<trkpt lat="34.970094" lon="137.854515">
<ele>543.010000</ele>
<time>2024-07-19T07:14:22Z</time>
<extensions>
<kashmir3d:speed>0.81</kashmir3d:speed>
</extensions>
</trkpt>
<trkpt lat="34.970023" lon="137.854513">
<ele>541.600000</ele>
<time>2024-07-19T07:14:31Z</time>
<extensions>
<kashmir3d:speed>0.84</kashmir3d:speed>
</extensions>
</trkpt>
<trkpt lat="34.969995" lon="137.854512">
<ele>541.600000</ele>
<time>2024-07-19T07:14:34Z</time>
<extensions>
<kashmir3d:speed>1.11</kashmir3d:speed>
</extensions>
</trkpt>
<trkpt lat="34.969995" lon="137.854512">
<ele>541.600000</ele>
<time>2024-07-19T07:14:34Z</time>
<extensions>
<kashmir3d:speed>0.00</kashmir3d:speed>
</extensions>
</trkpt>
<trkpt lat="34.969953" lon="137.854513">
<ele>540.610000</ele>
<time>2024-07-19T07:14:38Z</time>
<extensions>
<kashmir3d:speed>1.11</kashmir3d:speed>
</extensions>
</trkpt>
<trkpt lat="34.969883" lon="137.854514">
<ele>540.050000</ele>
<time>2024-07-19T07:14:45Z</time>
<extensions>
<kashmir3d:speed>1.11</kashmir3d:speed>
</extensions>
</trkpt>
<trkpt lat="34.969812" lon="137.854516">
<ele>539.570000</ele>
<time>2024-07-19T07:14:55Z</time>
<extensions>
<kashmir3d:speed>0.81</kashmir3d:speed>
</extensions>
</trkpt>
<trkpt lat="34.969742" lon="137.854517">
<ele>539.220000</ele>
<time>2024-07-19T07:15:03Z</time>
<extensions>
<kashmir3d:speed>0.88</kashmir3d:speed>
</extensions>
</trkpt>
<trkpt lat="34.969736" lon="137.854517">
<ele>539.220000</ele>
<time>2024-07-19T07:15:04Z</time>
<extensions>
<kashmir3d:speed>1.11</kashmir3d:speed>
</extensions>
</trkpt>
<trkpt lat="34.969736" lon="137.854517">
<ele>539.220000</ele>
<time>2024-07-19T07:15:04Z</time>
<extensions>
<kashmir3d:speed>0.00</kashmir3d:speed>
</extensions>
</trkpt>
<trkpt lat="34.969672" lon="137.854473">
<ele>539.190000</ele>
<time>2024-07-19T07:15:12Z</time>
<extensions>
<kashmir3d:speed>1.09</kashmir3d:speed>
</extensions>
</trkpt>
<trkpt lat="34.969601" lon="137.854424">
<ele>533.250000</ele>
<time>2024-07-19T07:16:13Z</time>
<extensions>
<kashmir3d:speed>0.15</kashmir3d:speed>
</extensions>
</trkpt>
<trkpt lat="34.969560" lon="137.854396">
<ele>533.250000</ele>
<time>2024-07-19T07:16:18Z</time>
<extensions>
<kashmir3d:speed>1.11</kashmir3d:speed>
</extensions>
</trkpt>
<trkpt lat="34.969560" lon="137.854396">
<ele>533.250000</ele>
<time>2024-07-19T07:16:18Z</time>
<extensions>
<kashmir3d:speed>0.00</kashmir3d:speed>
</extensions>
</trkpt>
<trkpt lat="34.969561" lon="137.854385">
<ele>533.250000</ele>
<time>2024-07-19T07:16:19Z</time>
<extensions>
<kashmir3d:speed>1.11</kashmir3d:speed>
</extensions>
</trkpt>
<trkpt lat="34.969567" lon="137.854300">
<ele>527.970000</ele>
<time>2024-07-19T07:16:54Z</time>
<extensions>
<kashmir3d:speed>0.22</kashmir3d:speed>
</extensions>
</trkpt>
<trkpt lat="34.969570" lon="137.854255">
<ele>522.570000</ele>
<time>2024-07-19T07:17:27Z</time>
<extensions>
<kashmir3d:speed>0.13</kashmir3d:speed>
</extensions>
</trkpt>
<trkpt lat="34.969570" lon="137.854255">
<ele>522.570000</ele>
<time>2024-07-19T07:17:27Z</time>
<extensions>
<kashmir3d:speed>0.00</kashmir3d:speed>
</extensions>
</trkpt>
<trkpt lat="34.969601" lon="137.854232">
<ele>522.570000</ele>
<time>2024-07-19T07:17:31Z</time>
<extensions>
<kashmir3d:speed>1.11</kashmir3d:speed>
</extensions>
</trkpt>
<trkpt lat="34.969672" lon="137.854182">
<ele>518.670000</ele>
<time>2024-07-19T07:17:45Z</time>
<extensions>
<kashmir3d:speed>0.63</kashmir3d:speed>
</extensions>
</trkpt>
<trkpt lat="34.969700" lon="137.854162">
<ele>519.420000</ele>
<time>2024-07-19T07:17:49Z</time>
<extensions>
<kashmir3d:speed>1.11</kashmir3d:speed>
</extensions>
</trkpt>
<trkpt lat="34.969700" lon="137.854162">
<ele>519.420000</ele>
<time>2024-07-19T07:17:49Z</time>
<extensions>
<kashmir3d:speed>0.00</kashmir3d:speed>
</extensions>
</trkpt>
<trkpt lat="34.969742" lon="137.854151">
<ele>519.420000</ele>
<time>2024-07-19T07:17:53Z</time>
<extensions>
<kashmir3d:speed>1.11</kashmir3d:speed>
</extensions>
</trkpt>
<trkpt lat="34.969812" lon="137.854133">
<ele>519.980000</ele>
<time>2024-07-19T07:18:00Z</time>
<extensions>
<kashmir3d:speed>1.11</kashmir3d:speed>
</extensions>
</trkpt>
<trkpt lat="34.969883" lon="137.854116">
<ele>516.340000</ele>
<time>2024-07-19T07:18:07Z</time>
<extensions>
<kashmir3d:speed>1.11</kashmir3d:speed>
</extensions>
</trkpt>
<trkpt lat="34.969944" lon="137.854100">
<ele>516.520000</ele>
<time>2024-07-19T07:18:13Z</time>
<extensions>
<kashmir3d:speed>1.11</kashmir3d:speed>
</extensions>
</trkpt>
<trkpt lat="34.969944" lon="137.854100">
<ele>516.520000</ele>
<time>2024-07-19T07:18:13Z</time>
<extensions>
<kashmir3d:speed>0.00</kashmir3d:speed>
</extensions>
</trkpt>
<trkpt lat="34.969953" lon="137.854094">
<ele>516.520000</ele>
<time>2024-07-19T07:18:14Z</time>
<extensions>
<kashmir3d:speed>1.11</kashmir3d:speed>
</extensions>
</trkpt>
<trkpt lat="34.970023" lon="137.854048">
<ele>517.270000</ele>
<time>2024-07-19T07:18:22Z</time>
<extensions>
<kashmir3d:speed>1.11</kashmir3d:speed>
</extensions>
</trkpt>
<trkpt lat="34.970058" lon="137.854025">
<ele>515.460000</ele>
<time>2024-07-19T07:18:29Z</time>
<extensions>
<kashmir3d:speed>0.64</kashmir3d:speed>
</extensions>
</trkpt>
<trkpt lat="34.970058" lon="137.854025">
<ele>515.460000</ele>
<time>2024-07-19T07:18:29Z</time>
<extensions>
<kashmir3d:speed>0.00</kashmir3d:speed>
</extensions>
</trkpt>
<trkpt lat="34.970109" lon="137.853956">
<ele>516.710000</ele>
<time>2024-07-19T07:18:44Z</time>
<extensions>
<kashmir3d:speed>0.59</kashmir3d:speed>
</extensions>
</trkpt>
<trkpt lat="34.970149" lon="137.853903">
<ele>513.730000</ele>
<time>2024-07-19T07:19:06Z</time>
<extensions>
<kashmir3d:speed>0.30</kashmir3d:speed>
</extensions>
</trkpt>
<trkpt lat="34.970149" lon="137.853903">
<ele>513.730000</ele>
<time>2024-07-19T07:19:06Z</time>
<extensions>
<kashmir3d:speed>0.00</kashmir3d:speed>
</extensions>
</trkpt>
<trkpt lat="34.970146" lon="137.853870">
<ele>513.730000</ele>
<time>2024-07-19T07:19:08Z</time>
<extensions>
<kashmir3d:speed>1.11</kashmir3d:speed>
</extensions>
</trkpt>
<trkpt lat="34.970142" lon="137.853824">
<ele>511.040000</ele>
<time>2024-07-19T07:19:27Z</time>
<extensions>
<kashmir3d:speed>0.23</kashmir3d:speed>
</extensions>
</trkpt>
<trkpt lat="34.970142" lon="137.853824">
<ele>511.040000</ele>
<time>2024-07-19T07:19:27Z</time>
<extensions>
<kashmir3d:speed>0.00</kashmir3d:speed>
</extensions>
</trkpt>
<trkpt lat="34.970094" lon="137.853785">
<ele>511.040000</ele>
<time>2024-07-19T07:19:32Z</time>
<extensions>
<kashmir3d:speed>1.11</kashmir3d:speed>
</extensions>
</trkpt>
<trkpt lat="34.970050" lon="137.853748">
<ele>508.040000</ele>
<time>2024-07-19T07:19:43Z</time>
<extensions>
<kashmir3d:speed>0.58</kashmir3d:speed>
</extensions>
</trkpt>
<trkpt lat="34.970050" lon="137.853748">
<ele>508.040000</ele>
<time>2024-07-19T07:19:43Z</time>
<extensions>
<kashmir3d:speed>0.00</kashmir3d:speed>
</extensions>
</trkpt>
<trkpt lat="34.970023" lon="137.853745">
<ele>507.410000</ele>
<time>2024-07-19T07:19:46Z</time>
<extensions>
<kashmir3d:speed>0.81</kashmir3d:speed>
</extensions>
</trkpt>
<trkpt lat="34.969953" lon="137.853739">
<ele>506.690000</ele>
<time>2024-07-19T07:19:55Z</time>
<extensions>
<kashmir3d:speed>0.95</kashmir3d:speed>
</extensions>
</trkpt>
<trkpt lat="34.969883" lon="137.853733">
<ele>505.700000</ele>
<time>2024-07-19T07:20:03Z</time>
<extensions>
<kashmir3d:speed>0.90</kashmir3d:speed>
</extensions>
</trkpt>
<trkpt lat="34.969864" lon="137.853731">
<ele>505.700000</ele>
<time>2024-07-19T07:20:05Z</time>
<extensions>
<kashmir3d:speed>1.11</kashmir3d:speed>
</extensions>
</trkpt>
<trkpt lat="34.969864" lon="137.853731">
<ele>505.700000</ele>
<time>2024-07-19T07:20:05Z</time>
<extensions>
<kashmir3d:speed>0.00</kashmir3d:speed>
</extensions>
</trkpt>
<trkpt lat="34.969812" lon="137.853733">
<ele>504.660000</ele>
<time>2024-07-19T07:20:12Z</time>
<extensions>
<kashmir3d:speed>0.84</kashmir3d:speed>
</extensions>
</trkpt>
<trkpt lat="34.969742" lon="137.853734">
<ele>503.550000</ele>
<time>2024-07-19T07:20:19Z</time>
<extensions>
<kashmir3d:speed>1.11</kashmir3d:speed>
</extensions>
</trkpt>
<trkpt lat="34.969674" lon="137.853736">
<ele>503.550000</ele>
<time>2024-07-19T07:20:26Z</time>
<extensions>
<kashmir3d:speed>1.11</kashmir3d:speed>
</extensions>
</trkpt>
<trkpt lat="34.969674" lon="137.853736">
<ele>503.550000</ele>
<time>2024-07-19T07:20:26Z</time>
<extensions>
<kashmir3d:speed>0.00</kashmir3d:speed>
</extensions>
</trkpt>
<trkpt lat="34.969672" lon="137.853738">
<ele>502.670000</ele>
<time>2024-07-19T07:20:26Z</time>
<extensions>
<kashmir3d:speed>1.11</kashmir3d:speed>
</extensions>
</trkpt>
<trkpt lat="34.969601" lon="137.853783">
<ele>501.650000</ele>
<time>2024-07-19T07:20:36Z</time>
<extensions>
<kashmir3d:speed>0.90</kashmir3d:speed>
</extensions>
</trkpt>
<trkpt lat="34.969531" lon="137.853828">
<ele>502.850000</ele>
<time>2024-07-19T07:20:47Z</time>
<extensions>
<kashmir3d:speed>0.79</kashmir3d:speed>
</extensions>
</trkpt>
<trkpt lat="34.969461" lon="137.853873">
<ele>504.830000</ele>
<time>2024-07-19T07:20:55Z</time>
<extensions>
<kashmir3d:speed>1.11</kashmir3d:speed>
</extensions>
</trkpt>
<trkpt lat="34.969390" lon="137.853918">
<ele>503.460000</ele>
<time>2024-07-19T07:21:05Z</time>
<extensions>
<kashmir3d:speed>0.87</kashmir3d:speed>
</extensions>
</trkpt>
<trkpt lat="34.969322" lon="137.853962">
<ele>505.780000</ele>
<time>2024-07-19T07:21:25Z</time>
<extensions>
<kashmir3d:speed>0.42</kashmir3d:speed>
</extensions>
</trkpt>
<trkpt lat="34.969322" lon="137.853962">
<ele>505.780000</ele>
<time>2024-07-19T07:21:25Z</time>
<extensions>
<kashmir3d:speed>0.00</kashmir3d:speed>
</extensions>
</trkpt>
<trkpt lat="34.969320" lon="137.853963">
<ele>502.900000</ele>
<time>2024-07-19T07:21:41Z</time>
<extensions>
<kashmir3d:speed>0.02</kashmir3d:speed>
</extensions>
</trkpt>
<trkpt lat="34.969250" lon="137.854004">
<ele>499.960000</ele>
<time>2024-07-19T07:21:54Z</time>
<extensions>
<kashmir3d:speed>0.69</kashmir3d:speed>
</extensions>
</trkpt>
<trkpt lat="34.969238" lon="137.854011">
<ele>499.960000</ele>
<time>2024-07-19T07:21:55Z</time>
<extensions>
<kashmir3d:speed>1.11</kashmir3d:speed>
</extensions>
</trkpt>
<trkpt lat="34.969238" lon="137.854011">
<ele>499.960000</ele>
<time>2024-07-19T07:21:55Z</time>
<extensions>
<kashmir3d:speed>0.00</kashmir3d:speed>
</extensions>
</trkpt>
<trkpt lat="34.969219" lon="137.853956">
<ele>499.960000</ele>
<time>2024-07-19T07:22:00Z</time>
<extensions>
<kashmir3d:speed>1.11</kashmir3d:speed>
</extensions>
</trkpt>
<trkpt lat="34.969215" lon="137.853945">
<ele>496.450000</ele>
<time>2024-07-19T07:22:20Z</time>
<extensions>
<kashmir3d:speed>0.05</kashmir3d:speed>
</extensions>
</trkpt>
<trkpt lat="34.969215" lon="137.853945">
<ele>496.450000</ele>
<time>2024-07-19T07:22:20Z</time>
<extensions>
<kashmir3d:speed>0.00</kashmir3d:speed>
</extensions>
</trkpt>
<trkpt lat="34.969238" lon="137.853870">
<ele>496.450000</ele>
<time>2024-07-19T07:22:26Z</time>
<extensions>
<kashmir3d:speed>1.11</kashmir3d:speed>
</extensions>
</trkpt>
<trkpt lat="34.969265" lon="137.853785">
<ele>497.890000</ele>
<time>2024-07-19T07:22:42Z</time>
<extensions>
<kashmir3d:speed>0.55</kashmir3d:speed>
</extensions>
</trkpt>
<trkpt lat="34.969291" lon="137.853699">
<ele>494.310000</ele>
<time>2024-07-19T07:23:08Z</time>
<extensions>
<kashmir3d:speed>0.31</kashmir3d:speed>
</extensions>
</trkpt>
<trkpt lat="34.969317" lon="137.853613">
<ele>490.260000</ele>
<time>2024-07-19T07:23:38Z</time>
<extensions>
<kashmir3d:speed>0.28</kashmir3d:speed>
</extensions>
</trkpt>
<trkpt lat="34.969341" lon="137.853536">
<ele>488.720000</ele>
<time>2024-07-19T07:23:53Z</time>
<extensions>
<kashmir3d:speed>0.50</kashmir3d:speed>
</extensions>
</trkpt>
<trkpt lat="34.969341" lon="137.853536">
<ele>488.720000</ele>
<time>2024-07-19T07:23:53Z</time>
<extensions>
<kashmir3d:speed>0.00</kashmir3d:speed>
</extensions>
</trkpt>
<trkpt lat="34.969345" lon="137.853527">
<ele>488.720000</ele>
<time>2024-07-19T07:23:54Z</time>
<extensions>
<kashmir3d:speed>1.11</kashmir3d:speed>
</extensions>
</trkpt>
<trkpt lat="34.969382" lon="137.853441">
<ele>485.780000</ele>
<time>2024-07-19T07:24:18Z</time>
<extensions>
<kashmir3d:speed>0.37</kashmir3d:speed>
</extensions>
</trkpt>
<trkpt lat="34.969419" lon="137.853355">
<ele>483.250000</ele>
<time>2024-07-19T07:24:39Z</time>
<extensions>
<kashmir3d:speed>0.41</kashmir3d:speed>
</extensions>
</trkpt>
<trkpt lat="34.969455" lon="137.853270">
<ele>477.010000</ele>
<time>2024-07-19T07:25:21Z</time>
<extensions>
<kashmir3d:speed>0.21</kashmir3d:speed>
</extensions>
</trkpt>
<trkpt lat="34.969485" lon="137.853201">
<ele>476.880000</ele>
<time>2024-07-19T07:25:28Z</time>
<extensions>
<kashmir3d:speed>0.94</kashmir3d:speed>
</extensions>
</trkpt>
<trkpt lat="34.969485" lon="137.853201">
<ele>476.880000</ele>
<time>2024-07-19T07:25:28Z</time>
<extensions>
<kashmir3d:speed>0.00</kashmir3d:speed>
</extensions>
</trkpt>
<trkpt lat="34.969491" lon="137.853184">
<ele>476.880000</ele>
<time>2024-07-19T07:25:30Z</time>
<extensions>
<kashmir3d:speed>1.11</kashmir3d:speed>
</extensions>
</trkpt>
<trkpt lat="34.969522" lon="137.853098">
<ele>472.410000</ele>
<time>2024-07-19T07:26:18Z</time>
<extensions>
<kashmir3d:speed>0.18</kashmir3d:speed>
</extensions>
</trkpt>
<trkpt lat="34.969536" lon="137.853061">
<ele>468.640000</ele>
<time>2024-07-19T07:26:55Z</time>
<extensions>
<kashmir3d:speed>0.10</kashmir3d:speed>
</extensions>
</trkpt>
<trkpt lat="34.969536" lon="137.853061">
<ele>468.640000</ele>
<time>2024-07-19T07:26:55Z</time>
<extensions>
<kashmir3d:speed>0.00</kashmir3d:speed>
</extensions>
</trkpt>
<trkpt lat="34.969516" lon="137.853012">
<ele>467.130000</ele>
<time>2024-07-19T07:27:08Z</time>
<extensions>
<kashmir3d:speed>0.39</kashmir3d:speed>
</extensions>
</trkpt>
<trkpt lat="34.969508" lon="137.852993">
<ele>461.620000</ele>
<time>2024-07-19T07:27:59Z</time>
<extensions>
<kashmir3d:speed>0.04</kashmir3d:speed>
</extensions>
</trkpt>
<trkpt lat="34.969508" lon="137.852993">
<ele>461.620000</ele>
<time>2024-07-19T07:27:59Z</time>
<extensions>
<kashmir3d:speed>0.00</kashmir3d:speed>
</extensions>
</trkpt>
<trkpt lat="34.969461" lon="137.852981">
<ele>459.850000</ele>
<time>2024-07-19T07:28:13Z</time>
<extensions>
<kashmir3d:speed>0.37</kashmir3d:speed>
</extensions>
</trkpt>
<trkpt lat="34.969390" lon="137.852963">
<ele>457.370000</ele>
<time>2024-07-19T07:28:34Z</time>
<extensions>
<kashmir3d:speed>0.39</kashmir3d:speed>
</extensions>
</trkpt>
<trkpt lat="34.969320" lon="137.852945">
<ele>454.270000</ele>
<time>2024-07-19T07:28:58Z</time>
<extensions>
<kashmir3d:speed>0.33</kashmir3d:speed>
</extensions>
</trkpt>
<trkpt lat="34.969250" lon="137.852928">
<ele>451.470000</ele>
<time>2024-07-19T07:29:30Z</time>
<extensions>
<kashmir3d:speed>0.25</kashmir3d:speed>
</extensions>
</trkpt>
<trkpt lat="34.969229" lon="137.852922">
<ele>446.460000</ele>
<time>2024-07-19T07:29:59Z</time>
<extensions>
<kashmir3d:speed>0.08</kashmir3d:speed>
</extensions>
</trkpt>
<trkpt lat="34.969229" lon="137.852922">
<ele>446.460000</ele>
<time>2024-07-19T07:29:59Z</time>
<extensions>
<kashmir3d:speed>0.00</kashmir3d:speed>
</extensions>
</trkpt>
<trkpt lat="34.969179" lon="137.852862">
<ele>444.830000</ele>
<time>2024-07-19T07:30:15Z</time>
<extensions>
<kashmir3d:speed>0.49</kashmir3d:speed>
</extensions>
</trkpt>
<trkpt lat="34.969169" lon="137.852849">
<ele>444.830000</ele>
<time>2024-07-19T07:30:17Z</time>
<extensions>
<kashmir3d:speed>1.11</kashmir3d:speed>
</extensions>
</trkpt>
<trkpt lat="34.969169" lon="137.852849">
<ele>444.830000</ele>
<time>2024-07-19T07:30:17Z</time>
<extensions>
<kashmir3d:speed>0.00</kashmir3d:speed>
</extensions>
</trkpt>
<trkpt lat="34.969170" lon="137.852840">
<ele>444.830000</ele>
<time>2024-07-19T07:30:17Z</time>
<extensions>
<kashmir3d:speed>1.11</kashmir3d:speed>
</extensions>
</trkpt>
<trkpt lat="34.969181" lon="137.852755">
<ele>441.410000</ele>
<time>2024-07-19T07:30:43Z</time>
<extensions>
<kashmir3d:speed>0.31</kashmir3d:speed>
</extensions>
</trkpt>
<trkpt lat="34.969187" lon="137.852699">
<ele>436.410000</ele>
<time>2024-07-19T07:31:33Z</time>
<extensions>
<kashmir3d:speed>0.10</kashmir3d:speed>
</extensions>
</trkpt>
<trkpt lat="34.969187" lon="137.852699">
<ele>436.410000</ele>
<time>2024-07-19T07:31:33Z</time>
<extensions>
<kashmir3d:speed>0.00</kashmir3d:speed>
</extensions>
</trkpt>
<trkpt lat="34.969210" lon="137.852669">
<ele>436.410000</ele>
<time>2024-07-19T07:31:36Z</time>
<extensions>
<kashmir3d:speed>1.11</kashmir3d:speed>
</extensions>
</trkpt>
<trkpt lat="34.969272" lon="137.852583">
<ele>433.740000</ele>
<time>2024-07-19T07:32:00Z</time>
<extensions>
<kashmir3d:speed>0.44</kashmir3d:speed>
</extensions>
</trkpt>
<trkpt lat="34.969335" lon="137.852497">
<ele>430.620000</ele>
<time>2024-07-19T07:32:26Z</time>
<extensions>
<kashmir3d:speed>0.40</kashmir3d:speed>
</extensions>
</trkpt>
<trkpt lat="34.969352" lon="137.852473">
<ele>424.860000</ele>
<time>2024-07-19T07:33:00Z</time>
<extensions>
<kashmir3d:speed>0.09</kashmir3d:speed>
</extensions>
</trkpt>
<trkpt lat="34.969352" lon="137.852473">
<ele>424.860000</ele>
<time>2024-07-19T07:33:00Z</time>
<extensions>
<kashmir3d:speed>0.00</kashmir3d:speed>
</extensions>
</trkpt>
<trkpt lat="34.969390" lon="137.852444">
<ele>424.860000</ele>
<time>2024-07-19T07:33:04Z</time>
<extensions>
<kashmir3d:speed>1.11</kashmir3d:speed>
</extensions>
</trkpt>
<trkpt lat="34.969461" lon="137.852389">
<ele>421.010000</ele>
<time>2024-07-19T07:33:13Z</time>
<extensions>
<kashmir3d:speed>1.11</kashmir3d:speed>
</extensions>
</trkpt>
<trkpt lat="34.969485" lon="137.852370">
<ele>422.910000</ele>
<time>2024-07-19T07:33:16Z</time>
<extensions>
<kashmir3d:speed>1.11</kashmir3d:speed>
</extensions>
</trkpt>
<trkpt lat="34.969485" lon="137.852370">
<ele>422.910000</ele>
<time>2024-07-19T07:33:16Z</time>
<extensions>
<kashmir3d:speed>0.00</kashmir3d:speed>
</extensions>
</trkpt>
<trkpt lat="34.969531" lon="137.852341">
<ele>422.910000</ele>
<time>2024-07-19T07:33:21Z</time>
<extensions>
<kashmir3d:speed>1.11</kashmir3d:speed>
</extensions>
</trkpt>
<trkpt lat="34.969601" lon="137.852296">
<ele>419.620000</ele>
<time>2024-07-19T07:33:29Z</time>
<extensions>
<kashmir3d:speed>1.11</kashmir3d:speed>
</extensions>
</trkpt>
<trkpt lat="34.969655" lon="137.852262">
<ele>421.480000</ele>
<time>2024-07-19T07:33:40Z</time>
<extensions>
<kashmir3d:speed>0.61</kashmir3d:speed>
</extensions>
</trkpt>
<trkpt lat="34.969655" lon="137.852262">
<ele>421.480000</ele>
<time>2024-07-19T07:33:40Z</time>
<extensions>
<kashmir3d:speed>0.00</kashmir3d:speed>
</extensions>
</trkpt>
<trkpt lat="34.969672" lon="137.852257">
<ele>421.480000</ele>
<time>2024-07-19T07:33:41Z</time>
<extensions>
<kashmir3d:speed>1.11</kashmir3d:speed>
</extensions>
</trkpt>
<trkpt lat="34.969742" lon="137.852235">
<ele>419.590000</ele>
<time>2024-07-19T07:33:54Z</time>
<extensions>
<kashmir3d:speed>0.65</kashmir3d:speed>
</extensions>
</trkpt>
<trkpt lat="34.969812" lon="137.852214">
<ele>422.720000</ele>
<time>2024-07-19T07:34:29Z</time>
<extensions>
<kashmir3d:speed>0.23</kashmir3d:speed>
</extensions>
</trkpt>
<trkpt lat="34.969883" lon="137.852192">
<ele>425.040000</ele>
<time>2024-07-19T07:34:57Z</time>
<extensions>
<kashmir3d:speed>0.29</kashmir3d:speed>
</extensions>
</trkpt>
<trkpt lat="34.969894" lon="137.852189">
<ele>427.340000</ele>
<time>2024-07-19T07:35:05Z</time>
<extensions>
<kashmir3d:speed>0.17</kashmir3d:speed>
</extensions>
</trkpt>
<trkpt lat="34.969894" lon="137.852189">
<ele>427.340000</ele>
<time>2024-07-19T07:35:05Z</time>
<extensions>
<kashmir3d:speed>0.00</kashmir3d:speed>
</extensions>
</trkpt>
<trkpt lat="34.969953" lon="137.852182">
<ele>427.340000</ele>
<time>2024-07-19T07:35:11Z</time>
<extensions>
<kashmir3d:speed>1.11</kashmir3d:speed>
</extensions>
</trkpt>
<trkpt lat="34.970023" lon="137.852174">
<ele>429.800000</ele>
<time>2024-07-19T07:35:22Z</time>
<extensions>
<kashmir3d:speed>0.71</kashmir3d:speed>
</extensions>
</trkpt>
<trkpt lat="34.970045" lon="137.852172">
<ele>430.200000</ele>
<time>2024-07-19T07:35:26Z</time>
<extensions>
<kashmir3d:speed>0.55</kashmir3d:speed>
</extensions>
</trkpt>
<trkpt lat="34.970045" lon="137.852172">
<ele>430.200000</ele>
<time>2024-07-19T07:35:26Z</time>
<extensions>
<kashmir3d:speed>0.00</kashmir3d:speed>
</extensions>
</trkpt>
<trkpt lat="34.970094" lon="137.852170">
<ele>430.200000</ele>
<time>2024-07-19T07:35:31Z</time>
<extensions>
<kashmir3d:speed>1.11</kashmir3d:speed>
</extensions>
</trkpt>
<trkpt lat="34.970138" lon="137.852168">
<ele>429.140000</ele>
<time>2024-07-19T07:35:41Z</time>
<extensions>
<kashmir3d:speed>0.48</kashmir3d:speed>
</extensions>
</trkpt>
<trkpt lat="34.970138" lon="137.852168">
<ele>429.140000</ele>
<time>2024-07-19T07:35:41Z</time>
<extensions>
<kashmir3d:speed>0.00</kashmir3d:speed>
</extensions>
</trkpt>
<trkpt lat="34.970156" lon="137.852154">
<ele>429.140000</ele>
<time>2024-07-19T07:35:43Z</time>
<extensions>
<kashmir3d:speed>1.11</kashmir3d:speed>
</extensions>
</trkpt>
<trkpt lat="34.970193" lon="137.852124">
<ele>422.210000</ele>
<time>2024-07-19T07:36:50Z</time>
<extensions>
<kashmir3d:speed>0.07</kashmir3d:speed>
</extensions>
</trkpt>
<trkpt lat="34.970193" lon="137.852124">
<ele>422.210000</ele>
<time>2024-07-19T07:36:50Z</time>
<extensions>
<kashmir3d:speed>0.00</kashmir3d:speed>
</extensions>
</trkpt>
<trkpt lat="34.970202" lon="137.852068">
<ele>422.210000</ele>
<time>2024-07-19T07:36:55Z</time>
<extensions>
<kashmir3d:speed>1.11</kashmir3d:speed>
</extensions>
</trkpt>
<trkpt lat="34.970209" lon="137.852031">
<ele>417.020000</ele>
<time>2024-07-19T07:37:44Z</time>
<extensions>
<kashmir3d:speed>0.07</kashmir3d:speed>
</extensions>
</trkpt>
<trkpt lat="34.970209" lon="137.852031">
<ele>417.020000</ele>
<time>2024-07-19T07:37:44Z</time>
<extensions>
<kashmir3d:speed>0.00</kashmir3d:speed>
</extensions>
</trkpt>
<trkpt lat="34.970155" lon="137.851982">
<ele>417.600000</ele>
<time>2024-07-19T07:37:54Z</time>
<extensions>
<kashmir3d:speed>0.76</kashmir3d:speed>
</extensions>
</trkpt>
<trkpt lat="34.970062" lon="137.851896">
<ele>411.900000</ele>
<time>2024-07-19T07:38:57Z</time>
<extensions>
<kashmir3d:speed>0.21</kashmir3d:speed>
</extensions>
</trkpt>
<trkpt lat="34.970056" lon="137.851891">
<ele>406.540000</ele>
<time>2024-07-19T07:39:46Z</time>
<extensions>
<kashmir3d:speed>0.02</kashmir3d:speed>
</extensions>
</trkpt>
<trkpt lat="34.970056" lon="137.851891">
<ele>406.540000</ele>
<time>2024-07-19T07:39:46Z</time>
<extensions>
<kashmir3d:speed>0.00</kashmir3d:speed>
</extensions>
</trkpt>
<trkpt lat="34.970023" lon="137.851859">
<ele>405.580000</ele>
<time>2024-07-19T07:39:56Z</time>
<extensions>
<kashmir3d:speed>0.50</kashmir3d:speed>
</extensions>
</trkpt>
<trkpt lat="34.969953" lon="137.851789">
<ele>400.130000</ele>
<time>2024-07-19T07:40:34Z</time>
<extensions>
<kashmir3d:speed>0.26</kashmir3d:speed>
</extensions>
</trkpt>
<trkpt lat="34.969883" lon="137.851720">
<ele>394.060000</ele>
<time>2024-07-19T07:41:16Z</time>
<extensions>
<kashmir3d:speed>0.24</kashmir3d:speed>
</extensions>
</trkpt>
<trkpt lat="34.969843" lon="137.851680">
<ele>394.060000</ele>
<time>2024-07-19T07:41:21Z</time>
<extensions>
<kashmir3d:speed>1.11</kashmir3d:speed>
</extensions>
</trkpt>
<trkpt lat="34.969843" lon="137.851680">
<ele>394.060000</ele>
<time>2024-07-19T07:41:21Z</time>
<extensions>
<kashmir3d:speed>0.00</kashmir3d:speed>
</extensions>
</trkpt>
<trkpt lat="34.969831" lon="137.851639">
<ele>394.060000</ele>
<time>2024-07-19T07:41:25Z</time>
<extensions>
<kashmir3d:speed>1.11</kashmir3d:speed>
</extensions>
</trkpt>
<trkpt lat="34.969817" lon="137.851586">
<ele>390.300000</ele>
<time>2024-07-19T07:41:50Z</time>
<extensions>
<kashmir3d:speed>0.20</kashmir3d:speed>
</extensions>
</trkpt>
<trkpt lat="34.969817" lon="137.851586">
<ele>390.300000</ele>
<time>2024-07-19T07:41:50Z</time>
<extensions>
<kashmir3d:speed>0.00</kashmir3d:speed>
</extensions>
</trkpt>
<trkpt lat="34.969822" lon="137.851553">
<ele>390.300000</ele>
<time>2024-07-19T07:41:52Z</time>
<extensions>
<kashmir3d:speed>1.11</kashmir3d:speed>
</extensions>
</trkpt>
<trkpt lat="34.969836" lon="137.851467">
<ele>385.980000</ele>
<time>2024-07-19T07:42:38Z</time>
<extensions>
<kashmir3d:speed>0.17</kashmir3d:speed>
</extensions>
</trkpt>
<trkpt lat="34.969842" lon="137.851435">
<ele>381.670000</ele>
<time>2024-07-19T07:43:20Z</time>
<extensions>
<kashmir3d:speed>0.07</kashmir3d:speed>
</extensions>
</trkpt>
<trkpt lat="34.969842" lon="137.851435">
<ele>381.670000</ele>
<time>2024-07-19T07:43:20Z</time>
<extensions>
<kashmir3d:speed>0.00</kashmir3d:speed>
</extensions>
</trkpt>
<trkpt lat="34.969878" lon="137.851381">
<ele>381.670000</ele>
<time>2024-07-19T07:43:26Z</time>
<extensions>
<kashmir3d:speed>1.11</kashmir3d:speed>
</extensions>
</trkpt>
<trkpt lat="34.969936" lon="137.851295">
<ele>377.650000</ele>
<time>2024-07-19T07:44:11Z</time>
<extensions>
<kashmir3d:speed>0.22</kashmir3d:speed>
</extensions>
</trkpt>
<trkpt lat="34.969967" lon="137.851250">
<ele>373.270000</ele>
<time>2024-07-19T07:44:55Z</time>
<extensions>
<kashmir3d:speed>0.12</kashmir3d:speed>
</extensions>
</trkpt>
<trkpt lat="34.969967" lon="137.851250">
<ele>373.270000</ele>
<time>2024-07-19T07:44:55Z</time>
<extensions>
<kashmir3d:speed>0.00</kashmir3d:speed>
</extensions>
</trkpt>
<trkpt lat="34.969986" lon="137.851210">
<ele>373.270000</ele>
<time>2024-07-19T07:44:59Z</time>
<extensions>
<kashmir3d:speed>1.11</kashmir3d:speed>
</extensions>
</trkpt>
<trkpt lat="34.970011" lon="137.851159">
<ele>368.610000</ele>
<time>2024-07-19T07:45:29Z</time>
<extensions>
<kashmir3d:speed>0.18</kashmir3d:speed>
</extensions>
</trkpt>
<trkpt lat="34.970011" lon="137.851159">
<ele>368.610000</ele>
<time>2024-07-19T07:45:29Z</time>
<extensions>
<kashmir3d:speed>0.00</kashmir3d:speed>
</extensions>
</trkpt>
<trkpt lat="34.969982" lon="137.851124">
<ele>368.610000</ele>
<time>2024-07-19T07:45:33Z</time>
<extensions>
<kashmir3d:speed>1.11</kashmir3d:speed>
</extensions>
</trkpt>
<trkpt lat="34.969977" lon="137.851118">
<ele>363.370000</ele>
<time>2024-07-19T07:46:02Z</time>
<extensions>
<kashmir3d:speed>0.03</kashmir3d:speed>
</extensions>
</trkpt>
<trkpt lat="34.969977" lon="137.851118">
<ele>363.370000</ele>
<time>2024-07-19T07:46:02Z</time>
<extensions>
<kashmir3d:speed>0.00</kashmir3d:speed>
</extensions>
</trkpt>
<trkpt lat="34.969953" lon="137.851117">
<ele>362.690000</ele>
<time>2024-07-19T07:46:08Z</time>
<extensions>
<kashmir3d:speed>0.44</kashmir3d:speed>
</extensions>
</trkpt>
<trkpt lat="34.969883" lon="137.851115">
<ele>361.160000</ele>
<time>2024-07-19T07:46:23Z</time>
<extensions>
<kashmir3d:speed>0.51</kashmir3d:speed>
</extensions>
</trkpt>
<trkpt lat="34.969812" lon="137.851112">
<ele>358.330000</ele>
<time>2024-07-19T07:46:46Z</time>
<extensions>
<kashmir3d:speed>0.35</kashmir3d:speed>
</extensions>
</trkpt>
<trkpt lat="34.969742" lon="137.851110">
<ele>355.200000</ele>
<time>2024-07-19T07:47:10Z</time>
<extensions>
<kashmir3d:speed>0.33</kashmir3d:speed>
</extensions>
</trkpt>
<trkpt lat="34.969672" lon="137.851107">
<ele>351.880000</ele>
<time>2024-07-19T07:47:35Z</time>
<extensions>
<kashmir3d:speed>0.31</kashmir3d:speed>
</extensions>
</trkpt>
<trkpt lat="34.969601" lon="137.851105">
<ele>348.650000</ele>
<time>2024-07-19T07:47:59Z</time>
<extensions>
<kashmir3d:speed>0.32</kashmir3d:speed>
</extensions>
</trkpt>
<trkpt lat="34.969570" lon="137.851104">
<ele>348.650000</ele>
<time>2024-07-19T07:48:02Z</time>
<extensions>
<kashmir3d:speed>1.11</kashmir3d:speed>
</extensions>
</trkpt>
<trkpt lat="34.969570" lon="137.851104">
<ele>348.650000</ele>
<time>2024-07-19T07:48:02Z</time>
<extensions>
<kashmir3d:speed>0.00</kashmir3d:speed>
</extensions>
</trkpt>
<trkpt lat="34.969531" lon="137.851100">
<ele>345.810000</ele>
<time>2024-07-19T07:48:21Z</time>
<extensions>
<kashmir3d:speed>0.22</kashmir3d:speed>
</extensions>
</trkpt>
<trkpt lat="34.969461" lon="137.851094">
<ele>343.240000</ele>
<time>2024-07-19T07:48:42Z</time>
<extensions>
<kashmir3d:speed>0.37</kashmir3d:speed>
</extensions>
</trkpt>
<trkpt lat="34.969390" lon="137.851087">
<ele>340.930000</ele>
<time>2024-07-19T07:49:02Z</time>
<extensions>
<kashmir3d:speed>0.40</kashmir3d:speed>
</extensions>
</trkpt>
<trkpt lat="34.969375" lon="137.851086">
<ele>340.930000</ele>
<time>2024-07-19T07:49:04Z</time>
<extensions>
<kashmir3d:speed>1.11</kashmir3d:speed>
</extensions>
</trkpt>
<trkpt lat="34.969375" lon="137.851086">
<ele>340.930000</ele>
<time>2024-07-19T07:49:04Z</time>
<extensions>
<kashmir3d:speed>0.00</kashmir3d:speed>
</extensions>
</trkpt>
<trkpt lat="34.969305" lon="137.851038">
<ele>338.700000</ele>
<time>2024-07-19T07:49:23Z</time>
<extensions>
<kashmir3d:speed>0.44</kashmir3d:speed>
</extensions>
</trkpt>
<trkpt lat="34.969304" lon="137.851037">
<ele>333.210000</ele>
<time>2024-07-19T07:49:53Z</time>
<extensions>
<kashmir3d:speed>0.01</kashmir3d:speed>
</extensions>
</trkpt>
<trkpt lat="34.969304" lon="137.851037">
<ele>333.210000</ele>
<time>2024-07-19T07:49:53Z</time>
<extensions>
<kashmir3d:speed>0.00</kashmir3d:speed>
</extensions>
</trkpt>
<trkpt lat="34.969261" lon="137.850970">
<ele>333.210000</ele>
<time>2024-07-19T07:50:00Z</time>
<extensions>
<kashmir3d:speed>1.11</kashmir3d:speed>
</extensions>
</trkpt>
<trkpt lat="34.969261" lon="137.850970">
<ele>333.210000</ele>
<time>2024-07-19T07:50:00Z</time>
<extensions>
<kashmir3d:speed>0.00</kashmir3d:speed>
</extensions>
</trkpt>
<trkpt lat="34.969320" lon="137.850915">
<ele>326.720000</ele>
<time>2024-07-19T07:50:43Z</time>
<extensions>
<kashmir3d:speed>0.19</kashmir3d:speed>
</extensions>
</trkpt>
<trkpt lat="34.969390" lon="137.850849">
<ele>323.680000</ele>
<time>2024-07-19T07:50:57Z</time>
<extensions>
<kashmir3d:speed>0.71</kashmir3d:speed>
</extensions>
</trkpt>
<trkpt lat="34.969461" lon="137.850784">
<ele>327.110000</ele>
<time>2024-07-19T07:51:05Z</time>
<extensions>
<kashmir3d:speed>1.11</kashmir3d:speed>
</extensions>
</trkpt>
<trkpt lat="34.969531" lon="137.850718">
<ele>324.340000</ele>
<time>2024-07-19T07:51:29Z</time>
<extensions>
<kashmir3d:speed>0.41</kashmir3d:speed>
</extensions>
</trkpt>
<trkpt lat="34.969601" lon="137.850653">
<ele>322.590000</ele>
<time>2024-07-19T07:51:47Z</time>
<extensions>
<kashmir3d:speed>0.54</kashmir3d:speed>
</extensions>
</trkpt>
<trkpt lat="34.969672" lon="137.850588">
<ele>320.010000</ele>
<time>2024-07-19T07:52:00Z</time>
<extensions>
<kashmir3d:speed>0.75</kashmir3d:speed>
</extensions>
</trkpt>
<trkpt lat="34.969742" lon="137.850522">
<ele>315.940000</ele>
<time>2024-07-19T07:52:16Z</time>
<extensions>
<kashmir3d:speed>0.64</kashmir3d:speed>
</extensions>
</trkpt>
<trkpt lat="34.969753" lon="137.850512">
<ele>316.250000</ele>
<time>2024-07-19T07:52:17Z</time>
<extensions>
<kashmir3d:speed>1.11</kashmir3d:speed>
</extensions>
</trkpt>
<trkpt lat="34.969753" lon="137.850512">
<ele>316.250000</ele>
<time>2024-07-19T07:52:17Z</time>
<extensions>
<kashmir3d:speed>0.00</kashmir3d:speed>
</extensions>
</trkpt>
<trkpt lat="34.969812" lon="137.850481">
<ele>316.250000</ele>
<time>2024-07-19T07:52:24Z</time>
<extensions>
<kashmir3d:speed>1.11</kashmir3d:speed>
</extensions>
</trkpt>
<trkpt lat="34.969883" lon="137.850445">
<ele>317.180000</ele>
<time>2024-07-19T07:52:31Z</time>
<extensions>
<kashmir3d:speed>1.11</kashmir3d:speed>
</extensions>
</trkpt>
<trkpt lat="34.969953" lon="137.850408">
<ele>313.370000</ele>
<time>2024-07-19T07:52:45Z</time>
<extensions>
<kashmir3d:speed>0.61</kashmir3d:speed>
</extensions>
</trkpt>
<trkpt lat="34.970020" lon="137.850374">
<ele>313.820000</ele>
<time>2024-07-19T07:52:53Z</time>
<extensions>
<kashmir3d:speed>1.00</kashmir3d:speed>
</extensions>
</trkpt>
<trkpt lat="34.970020" lon="137.850374">
<ele>313.820000</ele>
<time>2024-07-19T07:52:53Z</time>
<extensions>
<kashmir3d:speed>0.00</kashmir3d:speed>
</extensions>
</trkpt>
<trkpt lat="34.970023" lon="137.850373">
<ele>313.820000</ele>
<time>2024-07-19T07:52:54Z</time>
<extensions>
<kashmir3d:speed>1.11</kashmir3d:speed>
</extensions>
</trkpt>
<trkpt lat="34.970094" lon="137.850354">
<ele>315.020000</ele>
<time>2024-07-19T07:53:03Z</time>
<extensions>
<kashmir3d:speed>0.85</kashmir3d:speed>
</extensions>
</trkpt>
<trkpt lat="34.970164" lon="137.850335">
<ele>312.190000</ele>
<time>2024-07-19T07:53:15Z</time>
<extensions>
<kashmir3d:speed>0.68</kashmir3d:speed>
</extensions>
</trkpt>
<trkpt lat="34.970234" lon="137.850316">
<ele>313.870000</ele>
<time>2024-07-19T07:53:22Z</time>
<extensions>
<kashmir3d:speed>1.11</kashmir3d:speed>
</extensions>
</trkpt>
<trkpt lat="34.970290" lon="137.850301">
<ele>314.720000</ele>
<time>2024-07-19T07:53:29Z</time>
<extensions>
<kashmir3d:speed>0.90</kashmir3d:speed>
</extensions>
</trkpt>
<trkpt lat="34.970290" lon="137.850301">
<ele>314.720000</ele>
<time>2024-07-19T07:53:29Z</time>
<extensions>
<kashmir3d:speed>0.00</kashmir3d:speed>
</extensions>
</trkpt>
<trkpt lat="34.970305" lon="137.850294">
<ele>314.720000</ele>
<time>2024-07-19T07:53:31Z</time>
<extensions>
<kashmir3d:speed>1.11</kashmir3d:speed>
</extensions>
</trkpt>
<trkpt lat="34.970375" lon="137.850262">
<ele>310.090000</ele>
<time>2024-07-19T07:54:03Z</time>
<extensions>
<kashmir3d:speed>0.26</kashmir3d:speed>
</extensions>
</trkpt>
<trkpt lat="34.970445" lon="137.850229">
<ele>309.130000</ele>
<time>2024-07-19T07:54:16Z</time>
<extensions>
<kashmir3d:speed>0.66</kashmir3d:speed>
</extensions>
</trkpt>
<trkpt lat="34.970511" lon="137.850199">
<ele>308.070000</ele>
<time>2024-07-19T07:54:29Z</time>
<extensions>
<kashmir3d:speed>0.61</kashmir3d:speed>
</extensions>
</trkpt>
<trkpt lat="34.970511" lon="137.850199">
<ele>308.070000</ele>
<time>2024-07-19T07:54:29Z</time>
<extensions>
<kashmir3d:speed>0.00</kashmir3d:speed>
</extensions>
</trkpt>
<trkpt lat="34.970516" lon="137.850198">
<ele>308.070000</ele>
<time>2024-07-19T07:54:29Z</time>
<extensions>
<kashmir3d:speed>1.11</kashmir3d:speed>
</extensions>
</trkpt>
<trkpt lat="34.970586" lon="137.850186">
<ele>306.970000</ele>
<time>2024-07-19T07:54:42Z</time>
<extensions>
<kashmir3d:speed>0.60</kashmir3d:speed>
</extensions>
</trkpt>
<trkpt lat="34.970656" lon="137.850174">
<ele>300.690000</ele>
<time>2024-07-19T07:55:23Z</time>
<extensions>
<kashmir3d:speed>0.19</kashmir3d:speed>
</extensions>
</trkpt>
<trkpt lat="34.970727" lon="137.850162">
<ele>299.230000</ele>
<time>2024-07-19T07:55:38Z</time>
<extensions>
<kashmir3d:speed>0.53</kashmir3d:speed>
</extensions>
</trkpt>
<trkpt lat="34.970797" lon="137.850150">
<ele>297.340000</ele>
<time>2024-07-19T07:55:55Z</time>
<extensions>
<kashmir3d:speed>0.46</kashmir3d:speed>
</extensions>
</trkpt>
<trkpt lat="34.970867" lon="137.850138">
<ele>295.430000</ele>
<time>2024-07-19T07:56:13Z</time>
<extensions>
<kashmir3d:speed>0.45</kashmir3d:speed>
</extensions>
</trkpt>
<trkpt lat="34.970938" lon="137.850126">
<ele>293.210000</ele>
<time>2024-07-19T07:56:32Z</time>
<extensions>
<kashmir3d:speed>0.41</kashmir3d:speed>
</extensions>
</trkpt>
<trkpt lat="34.970954" lon="137.850123">
<ele>290.550000</ele>
<time>2024-07-19T07:56:48Z</time>
<extensions>
<kashmir3d:speed>0.11</kashmir3d:speed>
</extensions>
</trkpt>
<trkpt lat="34.970954" lon="137.850123">
<ele>290.550000</ele>
<time>2024-07-19T07:56:48Z</time>
<extensions>
<kashmir3d:speed>0.00</kashmir3d:speed>
</extensions>
</trkpt>
<trkpt lat="34.971008" lon="137.850110">
<ele>290.550000</ele>
<time>2024-07-19T07:56:53Z</time>
<extensions>
<kashmir3d:speed>1.11</kashmir3d:speed>
</extensions>
</trkpt>
<trkpt lat="34.971078" lon="137.850092">
<ele>282.660000</ele>
<time>2024-07-19T07:57:43Z</time>
<extensions>
<kashmir3d:speed>0.16</kashmir3d:speed>
</extensions>
</trkpt>
<trkpt lat="34.971149" lon="137.850075">
<ele>280.860000</ele>
<time>2024-07-19T07:58:00Z</time>
<extensions>
<kashmir3d:speed>0.47</kashmir3d:speed>
</extensions>
</trkpt>
<trkpt lat="34.971149" lon="137.850075">
<ele>278.190000</ele>
<time>2024-07-19T07:58:14Z</time>
<extensions>
<kashmir3d:speed>0.00</kashmir3d:speed>
</extensions>
</trkpt>
<trkpt lat="34.971149" lon="137.850075">
<ele>278.190000</ele>
<time>2024-07-19T07:58:14Z</time>
<extensions>
<kashmir3d:speed>0.00</kashmir3d:speed>
</extensions>
</trkpt>
<trkpt lat="34.971219" lon="137.850026">
<ele>278.190000</ele>
<time>2024-07-19T07:58:22Z</time>
<extensions>
<kashmir3d:speed>1.11</kashmir3d:speed>
</extensions>
</trkpt>
<trkpt lat="34.971231" lon="137.850018">
<ele>276.510000</ele>
<time>2024-07-19T07:58:33Z</time>
<extensions>
<kashmir3d:speed>0.15</kashmir3d:speed>
</extensions>
</trkpt>
<trkpt lat="34.971231" lon="137.850018">
<ele>276.510000</ele>
<time>2024-07-19T07:58:33Z</time>
<extensions>
<kashmir3d:speed>0.00</kashmir3d:speed>
</extensions>
</trkpt>
<trkpt lat="34.971235" lon="137.850008">
<ele>276.510000</ele>
<time>2024-07-19T07:58:34Z</time>
<extensions>
<kashmir3d:speed>1.11</kashmir3d:speed>
</extensions>
</trkpt>
<trkpt lat="34.971266" lon="137.849929">
<ele>273.110000</ele>
<time>2024-07-19T07:58:59Z</time>
<extensions>
<kashmir3d:speed>0.31</kashmir3d:speed>
</extensions>
</trkpt>
<trkpt lat="34.971266" lon="137.849929">
<ele>273.110000</ele>
<time>2024-07-19T07:58:59Z</time>
<extensions>
<kashmir3d:speed>0.00</kashmir3d:speed>
</extensions>
</trkpt>
<trkpt lat="34.971264" lon="137.849922">
<ele>273.110000</ele>
<time>2024-07-19T07:59:00Z</time>
<extensions>
<kashmir3d:speed>1.11</kashmir3d:speed>
</extensions>
</trkpt>
<trkpt lat="34.971232" lon="137.849836">
<ele>269.640000</ele>
<time>2024-07-19T07:59:26Z</time>
<extensions>
<kashmir3d:speed>0.33</kashmir3d:speed>
</extensions>
</trkpt>
<trkpt lat="34.971225" lon="137.849818">
<ele>266.480000</ele>
<time>2024-07-19T07:59:45Z</time>
<extensions>
<kashmir3d:speed>0.10</kashmir3d:speed>
</extensions>
</trkpt>
<trkpt lat="34.971225" lon="137.849818">
<ele>266.480000</ele>
<time>2024-07-19T07:59:45Z</time>
<extensions>
<kashmir3d:speed>0.00</kashmir3d:speed>
</extensions>
</trkpt>
<trkpt lat="34.971219" lon="137.849811">
<ele>266.090000</ele>
<time>2024-07-19T07:59:48Z</time>
<extensions>
<kashmir3d:speed>0.30</kashmir3d:speed>
</extensions>
</trkpt>
<trkpt lat="34.971149" lon="137.849731">
<ele>263.170000</ele>
<time>2024-07-19T08:00:14Z</time>
<extensions>
<kashmir3d:speed>0.42</kashmir3d:speed>
</extensions>
</trkpt>
<trkpt lat="34.971078" lon="137.849651">
<ele>258.580000</ele>
<time>2024-07-19T08:00:48Z</time>
<extensions>
<kashmir3d:speed>0.31</kashmir3d:speed>
</extensions>
</trkpt>
<trkpt lat="34.971078" lon="137.849650">
<ele>258.580000</ele>
<time>2024-07-19T08:00:48Z</time>
<extensions>
<kashmir3d:speed>1.11</kashmir3d:speed>
</extensions>
</trkpt>
<trkpt lat="34.971078" lon="137.849650">
<ele>258.580000</ele>
<time>2024-07-19T08:00:48Z</time>
<extensions>
<kashmir3d:speed>0.00</kashmir3d:speed>
</extensions>
</trkpt>
<trkpt lat="34.971037" lon="137.849579">
<ele>258.580000</ele>
<time>2024-07-19T08:00:55Z</time>
<extensions>
<kashmir3d:speed>1.11</kashmir3d:speed>
</extensions>
</trkpt>
<trkpt lat="34.970988" lon="137.849493">
<ele>254.200000</ele>
<time>2024-07-19T08:01:27Z</time>
<extensions>
<kashmir3d:speed>0.30</kashmir3d:speed>
</extensions>
</trkpt>
<trkpt lat="34.970974" lon="137.849469">
<ele>250.080000</ele>
<time>2024-07-19T08:01:52Z</time>
<extensions>
<kashmir3d:speed>0.11</kashmir3d:speed>
</extensions>
</trkpt>
<trkpt lat="34.970974" lon="137.849469">
<ele>250.080000</ele>
<time>2024-07-19T08:01:52Z</time>
<extensions>
<kashmir3d:speed>0.00</kashmir3d:speed>
</extensions>
</trkpt>
<trkpt lat="34.970953" lon="137.849407">
<ele>250.080000</ele>
<time>2024-07-19T08:01:58Z</time>
<extensions>
<kashmir3d:speed>1.11</kashmir3d:speed>
</extensions>
</trkpt>
<trkpt lat="34.970924" lon="137.849321">
<ele>247.700000</ele>
<time>2024-07-19T08:02:18Z</time>
<extensions>
<kashmir3d:speed>0.41</kashmir3d:speed>
</extensions>
</trkpt>
<trkpt lat="34.970895" lon="137.849236">
<ele>245.450000</ele>
<time>2024-07-19T08:02:38Z</time>
<extensions>
<kashmir3d:speed>0.43</kashmir3d:speed>
</extensions>
</trkpt>
<trkpt lat="34.970867" lon="137.849154">
<ele>243.890000</ele>
<time>2024-07-19T08:02:53Z</time>
<extensions>
<kashmir3d:speed>0.51</kashmir3d:speed>
</extensions>
</trkpt>
<trkpt lat="34.970867" lon="137.849154">
<ele>243.890000</ele>
<time>2024-07-19T08:02:53Z</time>
<extensions>
<kashmir3d:speed>0.00</kashmir3d:speed>
</extensions>
</trkpt>
<trkpt lat="34.970865" lon="137.849150">
<ele>243.890000</ele>
<time>2024-07-19T08:02:54Z</time>
<extensions>
<kashmir3d:speed>1.11</kashmir3d:speed>
</extensions>
</trkpt>
<trkpt lat="34.970840" lon="137.849064">
<ele>242.360000</ele>
<time>2024-07-19T08:03:10Z</time>
<extensions>
<kashmir3d:speed>0.53</kashmir3d:speed>
</extensions>
</trkpt>
<trkpt lat="34.970830" lon="137.849030">
<ele>240.320000</ele>
<time>2024-07-19T08:03:24Z</time>
<extensions>
<kashmir3d:speed>0.24</kashmir3d:speed>
</extensions>
</trkpt>
<trkpt lat="34.970830" lon="137.849030">
<ele>240.320000</ele>
<time>2024-07-19T08:03:24Z</time>
<extensions>
<kashmir3d:speed>0.00</kashmir3d:speed>
</extensions>
</trkpt>
<trkpt lat="34.970797" lon="137.849011">
<ele>238.020000</ele>
<time>2024-07-19T08:03:40Z</time>
<extensions>
<kashmir3d:speed>0.25</kashmir3d:speed>
</extensions>
</trkpt>
<trkpt lat="34.970760" lon="137.848990">
<ele>238.020000</ele>
<time>2024-07-19T08:03:44Z</time>
<extensions>
<kashmir3d:speed>1.11</kashmir3d:speed>
</extensions>
</trkpt>
<trkpt lat="34.970760" lon="137.848990">
<ele>238.020000</ele>
<time>2024-07-19T08:03:44Z</time>
<extensions>
<kashmir3d:speed>0.00</kashmir3d:speed>
</extensions>
</trkpt>
<trkpt lat="34.970727" lon="137.848979">
<ele>237.220000</ele>
<time>2024-07-19T08:03:51Z</time>
<extensions>
<kashmir3d:speed>0.49</kashmir3d:speed>
</extensions>
</trkpt>
<trkpt lat="34.970656" lon="137.848956">
<ele>234.850000</ele>
<time>2024-07-19T08:04:12Z</time>
<extensions>
<kashmir3d:speed>0.40</kashmir3d:speed>
</extensions>
</trkpt>
<trkpt lat="34.970586" lon="137.848932">
<ele>233.450000</ele>
<time>2024-07-19T08:04:26Z</time>
<extensions>
<kashmir3d:speed>0.55</kashmir3d:speed>
</extensions>
</trkpt>
<trkpt lat="34.970516" lon="137.848908">
<ele>231.720000</ele>
<time>2024-07-19T08:04:43Z</time>
<extensions>
<kashmir3d:speed>0.49</kashmir3d:speed>
</extensions>
</trkpt>
<trkpt lat="34.970445" lon="137.848885">
<ele>227.340000</ele>
<time>2024-07-19T08:05:14Z</time>
<extensions>
<kashmir3d:speed>0.26</kashmir3d:speed>
</extensions>
</trkpt>
<trkpt lat="34.970375" lon="137.848861">
<ele>224.460000</ele>
<time>2024-07-19T08:05:37Z</time>
<extensions>
<kashmir3d:speed>0.35</kashmir3d:speed>
</extensions>
</trkpt>
<trkpt lat="34.970321" lon="137.848843">
<ele>224.460000</ele>
<time>2024-07-19T08:05:42Z</time>
<extensions>
<kashmir3d:speed>1.11</kashmir3d:speed>
</extensions>
</trkpt>
<trkpt lat="34.970321" lon="137.848843">
<ele>224.460000</ele>
<time>2024-07-19T08:05:42Z</time>
<extensions>
<kashmir3d:speed>0.00</kashmir3d:speed>
</extensions>
</trkpt>
<trkpt lat="34.970305" lon="137.848837">
<ele>224.040000</ele>
<time>2024-07-19T08:05:46Z</time>
<extensions>
<kashmir3d:speed>0.48</kashmir3d:speed>
</extensions>
</trkpt>
<trkpt lat="34.970234" lon="137.848812">
<ele>223.420000</ele>
<time>2024-07-19T08:05:57Z</time>
<extensions>
<kashmir3d:speed>0.76</kashmir3d:speed>
</extensions>
</trkpt>
<trkpt lat="34.970164" lon="137.848787">
<ele>219.400000</ele>
<time>2024-07-19T08:06:26Z</time>
<extensions>
<kashmir3d:speed>0.28</kashmir3d:speed>
</extensions>
</trkpt>
<trkpt lat="34.970122" lon="137.848772">
<ele>219.400000</ele>
<time>2024-07-19T08:06:30Z</time>
<extensions>
<kashmir3d:speed>1.11</kashmir3d:speed>
</extensions>
</trkpt>
<trkpt lat="34.970122" lon="137.848772">
<ele>219.400000</ele>
<time>2024-07-19T08:06:30Z</time>
<extensions>
<kashmir3d:speed>0.00</kashmir3d:speed>
</extensions>
</trkpt>
<trkpt lat="34.970094" lon="137.848753">
<ele>220.340000</ele>
<time>2024-07-19T08:06:39Z</time>
<extensions>
<kashmir3d:speed>0.43</kashmir3d:speed>
</extensions>
</trkpt>
<trkpt lat="34.970023" lon="137.848704">
<ele>211.950000</ele>
<time>2024-07-19T08:07:32Z</time>
<extensions>
<kashmir3d:speed>0.17</kashmir3d:speed>
</extensions>
</trkpt>
<trkpt lat="34.969953" lon="137.848656">
<ele>212.030000</ele>
<time>2024-07-19T08:07:41Z</time>
<extensions>
<kashmir3d:speed>1.05</kashmir3d:speed>
</extensions>
</trkpt>
<trkpt lat="34.969883" lon="137.848607">
<ele>206.670000</ele>
<time>2024-07-19T08:08:18Z</time>
<extensions>
<kashmir3d:speed>0.24</kashmir3d:speed>
</extensions>
</trkpt>
<trkpt lat="34.969812" lon="137.848559">
<ele>207.260000</ele>
<time>2024-07-19T08:08:29Z</time>
<extensions>
<kashmir3d:speed>0.80</kashmir3d:speed>
</extensions>
</trkpt>
<trkpt lat="34.969761" lon="137.848524">
<ele>204.660000</ele>
<time>2024-07-19T08:08:49Z</time>
<extensions>
<kashmir3d:speed>0.33</kashmir3d:speed>
</extensions>
</trkpt>
<trkpt lat="34.969761" lon="137.848524">
<ele>204.660000</ele>
<time>2024-07-19T08:08:49Z</time>
<extensions>
<kashmir3d:speed>0.00</kashmir3d:speed>
</extensions>
</trkpt>
<trkpt lat="34.969742" lon="137.848509">
<ele>202.000000</ele>
<time>2024-07-19T08:09:05Z</time>
<extensions>
<kashmir3d:speed>0.15</kashmir3d:speed>
</extensions>
</trkpt>
<trkpt lat="34.969672" lon="137.848454">
<ele>200.190000</ele>
<time>2024-07-19T08:09:17Z</time>
<extensions>
<kashmir3d:speed>0.82</kashmir3d:speed>
</extensions>
</trkpt>
<trkpt lat="34.969640" lon="137.848430">
<ele>200.190000</ele>
<time>2024-07-19T08:09:20Z</time>
<extensions>
<kashmir3d:speed>1.11</kashmir3d:speed>
</extensions>
</trkpt>
<trkpt lat="34.969640" lon="137.848430">
<ele>200.190000</ele>
<time>2024-07-19T08:09:20Z</time>
<extensions>
<kashmir3d:speed>0.00</kashmir3d:speed>
</extensions>
</trkpt>
<trkpt lat="34.969589" lon="137.848377">
<ele>196.830000</ele>
<time>2024-07-19T08:09:27Z</time>
<extensions>
<kashmir3d:speed>1.11</kashmir3d:speed>
</extensions>
</trkpt>
<trkpt lat="34.969505" lon="137.848291">
<ele>195.910000</ele>
<time>2024-07-19T08:09:40Z</time>
<extensions>
<kashmir3d:speed>0.97</kashmir3d:speed>
</extensions>
</trkpt>
<trkpt lat="34.969503" lon="137.848290">
<ele>199.160000</ele>
<time>2024-07-19T08:09:40Z</time>
<extensions>
<kashmir3d:speed>1.11</kashmir3d:speed>
</extensions>
</trkpt>
<trkpt lat="34.969503" lon="137.848290">
<ele>199.160000</ele>
<time>2024-07-19T08:09:40Z</time>
<extensions>
<kashmir3d:speed>0.00</kashmir3d:speed>
</extensions>
</trkpt>
<trkpt lat="34.969456" lon="137.848206">
<ele>195.570000</ele>
<time>2024-07-19T08:09:54Z</time>
<extensions>
<kashmir3d:speed>0.65</kashmir3d:speed>
</extensions>
</trkpt>
<trkpt lat="34.969409" lon="137.848120">
<ele>199.640000</ele>
<time>2024-07-19T08:10:03Z</time>
<extensions>
<kashmir3d:speed>1.11</kashmir3d:speed>
</extensions>
</trkpt>
<trkpt lat="34.969369" lon="137.848048">
<ele>195.120000</ele>
<time>2024-07-19T08:10:34Z</time>
<extensions>
<kashmir3d:speed>0.25</kashmir3d:speed>
</extensions>
</trkpt>
<trkpt lat="34.969369" lon="137.848048">
<ele>195.120000</ele>
<time>2024-07-19T08:10:34Z</time>
<extensions>
<kashmir3d:speed>0.00</kashmir3d:speed>
</extensions>
</trkpt>
<trkpt lat="34.969366" lon="137.848034">
<ele>195.120000</ele>
<time>2024-07-19T08:10:35Z</time>
<extensions>
<kashmir3d:speed>1.11</kashmir3d:speed>
</extensions>
</trkpt>
<trkpt lat="34.969348" lon="137.847948">
<ele>194.380000</ele>
<time>2024-07-19T08:10:47Z</time>
<extensions>
<kashmir3d:speed>0.72</kashmir3d:speed>
</extensions>
</trkpt>
<trkpt lat="34.969330" lon="137.847862">
<ele>193.530000</ele>
<time>2024-07-19T08:10:59Z</time>
<extensions>
<kashmir3d:speed>0.68</kashmir3d:speed>
</extensions>
</trkpt>
<trkpt lat="34.969313" lon="137.847776">
<ele>185.490000</ele>
<time>2024-07-19T08:11:19Z</time>
<extensions>
<kashmir3d:speed>0.40</kashmir3d:speed>
</extensions>
</trkpt>
<trkpt lat="34.969299" lon="137.847712">
<ele>186.740000</ele>
<time>2024-07-19T08:11:27Z</time>
<extensions>
<kashmir3d:speed>0.79</kashmir3d:speed>
</extensions>
</trkpt>
<trkpt lat="34.969299" lon="137.847712">
<ele>186.740000</ele>
<time>2024-07-19T08:11:27Z</time>
<extensions>
<kashmir3d:speed>0.00</kashmir3d:speed>
</extensions>
</trkpt>
<trkpt lat="34.969297" lon="137.847691">
<ele>186.740000</ele>
<time>2024-07-19T08:11:28Z</time>
<extensions>
<kashmir3d:speed>1.11</kashmir3d:speed>
</extensions>
</trkpt>
<trkpt lat="34.969287" lon="137.847605">
<ele>187.710000</ele>
<time>2024-07-19T08:11:37Z</time>
<extensions>
<kashmir3d:speed>0.89</kashmir3d:speed>
</extensions>
</trkpt>
<trkpt lat="34.969278" lon="137.847519">
<ele>187.200000</ele>
<time>2024-07-19T08:11:45Z</time>
<extensions>
<kashmir3d:speed>1.00</kashmir3d:speed>
</extensions>
</trkpt>
<trkpt lat="34.969268" lon="137.847433">
<ele>187.680000</ele>
<time>2024-07-19T08:11:52Z</time>
<extensions>
<kashmir3d:speed>1.11</kashmir3d:speed>
</extensions>
</trkpt>
<trkpt lat="34.969259" lon="137.847347">
<ele>187.700000</ele>
<time>2024-07-19T08:11:59Z</time>
<extensions>
<kashmir3d:speed>1.11</kashmir3d:speed>
</extensions>
</trkpt>
<trkpt lat="34.969249" lon="137.847261">
<ele>183.980000</ele>
<time>2024-07-19T08:12:07Z</time>
<extensions>
<kashmir3d:speed>1.11</kashmir3d:speed>
</extensions>
</trkpt>
<trkpt lat="34.969240" lon="137.847176">
<ele>184.690000</ele>
<time>2024-07-19T08:12:15Z</time>
<extensions>
<kashmir3d:speed>0.94</kashmir3d:speed>
</extensions>
</trkpt>
<trkpt lat="34.969238" lon="137.847159">
<ele>184.430000</ele>
<time>2024-07-19T08:12:16Z</time>
<extensions>
<kashmir3d:speed>1.11</kashmir3d:speed>
</extensions>
</trkpt>
<trkpt lat="34.969238" lon="137.847159">
<ele>184.430000</ele>
<time>2024-07-19T08:12:16Z</time>
<extensions>
<kashmir3d:speed>0.00</kashmir3d:speed>
</extensions>
</trkpt>
<trkpt lat="34.969252" lon="137.847090">
<ele>188.950000</ele>
<time>2024-07-19T08:12:22Z</time>
<extensions>
<kashmir3d:speed>1.11</kashmir3d:speed>
</extensions>
</trkpt>
<trkpt lat="34.969268" lon="137.847004">
<ele>187.670000</ele>
<time>2024-07-19T08:12:31Z</time>
<extensions>
<kashmir3d:speed>0.86</kashmir3d:speed>
</extensions>
</trkpt>
<trkpt lat="34.969285" lon="137.846918">
<ele>185.900000</ele>
<time>2024-07-19T08:12:48Z</time>
<extensions>
<kashmir3d:speed>0.48</kashmir3d:speed>
</extensions>
</trkpt>
<trkpt lat="34.969302" lon="137.846832">
<ele>183.470000</ele>
<time>2024-07-19T08:13:09Z</time>
<extensions>
<kashmir3d:speed>0.40</kashmir3d:speed>
</extensions>
</trkpt>
<trkpt lat="34.969309" lon="137.846796">
<ele>180.360000</ele>
<time>2024-07-19T08:13:28Z</time>
<extensions>
<kashmir3d:speed>0.17</kashmir3d:speed>
</extensions>
</trkpt>
<trkpt lat="34.969309" lon="137.846796">
<ele>180.360000</ele>
<time>2024-07-19T08:13:28Z</time>
<extensions>
<kashmir3d:speed>0.00</kashmir3d:speed>
</extensions>
</trkpt>
<trkpt lat="34.969330" lon="137.846746">
<ele>184.050000</ele>
<time>2024-07-19T08:13:53Z</time>
<extensions>
<kashmir3d:speed>0.21</kashmir3d:speed>
</extensions>
</trkpt>
<trkpt lat="34.969367" lon="137.846661">
<ele>180.330000</ele>
<time>2024-07-19T08:14:21Z</time>
<extensions>
<kashmir3d:speed>0.32</kashmir3d:speed>
</extensions>
</trkpt>
<trkpt lat="34.969370" lon="137.846655">
<ele>177.030000</ele>
<time>2024-07-19T08:14:51Z</time>
<extensions>
<kashmir3d:speed>0.02</kashmir3d:speed>
</extensions>
</trkpt>
<trkpt lat="34.969370" lon="137.846655">
<ele>177.030000</ele>
<time>2024-07-19T08:14:51Z</time>
<extensions>
<kashmir3d:speed>0.00</kashmir3d:speed>
</extensions>
</trkpt>
<trkpt lat="34.969367" lon="137.846575">
<ele>177.030000</ele>
<time>2024-07-19T08:14:58Z</time>
<extensions>
<kashmir3d:speed>1.11</kashmir3d:speed>
</extensions>
</trkpt>
<trkpt lat="34.969363" lon="137.846489">
<ele>173.930000</ele>
<time>2024-07-19T08:15:22Z</time>
<extensions>
<kashmir3d:speed>0.33</kashmir3d:speed>
</extensions>
</trkpt>
<trkpt lat="34.969360" lon="137.846403">
<ele>171.200000</ele>
<time>2024-07-19T08:15:43Z</time>
<extensions>
<kashmir3d:speed>0.36</kashmir3d:speed>
</extensions>
</trkpt>
<trkpt lat="34.969358" lon="137.846355">
<ele>167.240000</ele>
<time>2024-07-19T08:16:09Z</time>
<extensions>
<kashmir3d:speed>0.17</kashmir3d:speed>
</extensions>
</trkpt>
<trkpt lat="34.969358" lon="137.846355">
<ele>167.240000</ele>
<time>2024-07-19T08:16:09Z</time>
<extensions>
<kashmir3d:speed>0.00</kashmir3d:speed>
</extensions>
</trkpt>
<trkpt lat="34.969320" lon="137.846390">
<ele>162.850000</ele>
<time>2024-07-19T08:16:21Z</time>
<extensions>
<kashmir3d:speed>0.45</kashmir3d:speed>
</extensions>
</trkpt>
<trkpt lat="34.969250" lon="137.846456">
<ele>160.770000</ele>
<time>2024-07-19T08:16:30Z</time>
<extensions>
<kashmir3d:speed>1.11</kashmir3d:speed>
</extensions>
</trkpt>
<trkpt lat="34.969179" lon="137.846521">
<ele>161.080000</ele>
<time>2024-07-19T08:16:38Z</time>
<extensions>
<kashmir3d:speed>1.11</kashmir3d:speed>
</extensions>
</trkpt>
<trkpt lat="34.969109" lon="137.846587">
<ele>163.120000</ele>
<time>2024-07-19T08:16:51Z</time>
<extensions>
<kashmir3d:speed>0.81</kashmir3d:speed>
</extensions>
</trkpt>
<trkpt lat="34.969039" lon="137.846652">
<ele>159.650000</ele>
<time>2024-07-19T08:17:18Z</time>
<extensions>
<kashmir3d:speed>0.36</kashmir3d:speed>
</extensions>
</trkpt>
<trkpt lat="34.968968" lon="137.846717">
<ele>157.820000</ele>
<time>2024-07-19T08:17:30Z</time>
<extensions>
<kashmir3d:speed>0.83</kashmir3d:speed>
</extensions>
</trkpt>
<trkpt lat="34.968898" lon="137.846783">
<ele>154.760000</ele>
<time>2024-07-19T08:17:39Z</time>
<extensions>
<kashmir3d:speed>1.11</kashmir3d:speed>
</extensions>
</trkpt>
<trkpt lat="34.968885" lon="137.846795">
<ele>154.760000</ele>
<time>2024-07-19T08:17:40Z</time>
<extensions>
<kashmir3d:speed>1.11</kashmir3d:speed>
</extensions>
</trkpt>
<trkpt lat="34.968885" lon="137.846795">
<ele>154.760000</ele>
<time>2024-07-19T08:17:40Z</time>
<extensions>
<kashmir3d:speed>0.00</kashmir3d:speed>
</extensions>
</trkpt>
<trkpt lat="34.968885" lon="137.846746">
<ele>154.760000</ele>
<time>2024-07-19T08:17:44Z</time>
<extensions>
<kashmir3d:speed>1.11</kashmir3d:speed>
</extensions>
</trkpt>
<trkpt lat="34.968886" lon="137.846661">
<ele>153.780000</ele>
<time>2024-07-19T08:17:53Z</time>
<extensions>
<kashmir3d:speed>0.91</kashmir3d:speed>
</extensions>
</trkpt>
<trkpt lat="34.968886" lon="137.846625">
<ele>152.950000</ele>
<time>2024-07-19T08:17:57Z</time>
<extensions>
<kashmir3d:speed>0.76</kashmir3d:speed>
</extensions>
</trkpt>
<trkpt lat="34.968886" lon="137.846625">
<ele>152.950000</ele>
<time>2024-07-19T08:17:57Z</time>
<extensions>
<kashmir3d:speed>0.00</kashmir3d:speed>
</extensions>
</trkpt>
<trkpt lat="34.968909" lon="137.846575">
<ele>155.390000</ele>
<time>2024-07-19T08:18:06Z</time>
<extensions>
<kashmir3d:speed>0.61</kashmir3d:speed>
</extensions>
</trkpt>
<trkpt lat="34.968948" lon="137.846489">
<ele>153.470000</ele>
<time>2024-07-19T08:18:25Z</time>
<extensions>
<kashmir3d:speed>0.49</kashmir3d:speed>
</extensions>
</trkpt>
<trkpt lat="34.968987" lon="137.846403">
<ele>151.260000</ele>
<time>2024-07-19T08:18:36Z</time>
<extensions>
<kashmir3d:speed>0.77</kashmir3d:speed>
</extensions>
</trkpt>
<trkpt lat="34.969002" lon="137.846372">
<ele>148.400000</ele>
<time>2024-07-19T08:18:44Z</time>
<extensions>
<kashmir3d:speed>0.43</kashmir3d:speed>
</extensions>
</trkpt>
<trkpt lat="34.969002" lon="137.846372">
<ele>148.400000</ele>
<time>2024-07-19T08:18:44Z</time>
<extensions>
<kashmir3d:speed>0.00</kashmir3d:speed>
</extensions>
</trkpt>
<trkpt lat="34.969041" lon="137.846317">
<ele>148.800000</ele>
<time>2024-07-19T08:18:50Z</time>
<extensions>
<kashmir3d:speed>0.99</kashmir3d:speed>
</extensions>
</trkpt>
<trkpt lat="34.969102" lon="137.846231">
<ele>146.350000</ele>
<time>2024-07-19T08:19:04Z</time>
<extensions>
<kashmir3d:speed>0.76</kashmir3d:speed>
</extensions>
</trkpt>
<trkpt lat="34.969164" lon="137.846146">
<ele>146.020000</ele>
<time>2024-07-19T08:19:14Z</time>
<extensions>
<kashmir3d:speed>1.04</kashmir3d:speed>
</extensions>
</trkpt>
<trkpt lat="34.969189" lon="137.846110">
<ele>149.020000</ele>
<time>2024-07-19T08:19:23Z</time>
<extensions>
<kashmir3d:speed>0.46</kashmir3d:speed>
</extensions>
</trkpt>
<trkpt lat="34.969189" lon="137.846110">
<ele>149.020000</ele>
<time>2024-07-19T08:19:23Z</time>
<extensions>
<kashmir3d:speed>0.00</kashmir3d:speed>
</extensions>
</trkpt>
<trkpt lat="34.969216" lon="137.846060">
<ele>149.020000</ele>
<time>2024-07-19T08:19:28Z</time>
<extensions>
<kashmir3d:speed>1.11</kashmir3d:speed>
</extensions>
</trkpt>
<trkpt lat="34.969263" lon="137.845974">
<ele>150.560000</ele>
<time>2024-07-19T08:19:37Z</time>
<extensions>
<kashmir3d:speed>1.11</kashmir3d:speed>
</extensions>
</trkpt>
<trkpt lat="34.969310" lon="137.845888">
<ele>147.350000</ele>
<time>2024-07-19T08:19:45Z</time>
<extensions>
<kashmir3d:speed>1.11</kashmir3d:speed>
</extensions>
</trkpt>
<trkpt lat="34.969356" lon="137.845802">
<ele>148.190000</ele>
<time>2024-07-19T08:19:56Z</time>
<extensions>
<kashmir3d:speed>0.88</kashmir3d:speed>
</extensions>
</trkpt>
<trkpt lat="34.969403" lon="137.845716">
<ele>148.630000</ele>
<time>2024-07-19T08:20:05Z</time>
<extensions>
<kashmir3d:speed>1.02</kashmir3d:speed>
</extensions>
</trkpt>
<trkpt lat="34.969444" lon="137.845641">
<ele>149.650000</ele>
<time>2024-07-19T08:20:13Z</time>
<extensions>
<kashmir3d:speed>1.11</kashmir3d:speed>
</extensions>
</trkpt>
<trkpt lat="34.969444" lon="137.845641">
<ele>149.650000</ele>
<time>2024-07-19T08:20:13Z</time>
<extensions>
<kashmir3d:speed>0.00</kashmir3d:speed>
</extensions>
</trkpt>
<trkpt lat="34.969447" lon="137.845631">
<ele>149.650000</ele>
<time>2024-07-19T08:20:14Z</time>
<extensions>
<kashmir3d:speed>1.11</kashmir3d:speed>
</extensions>
</trkpt>
<trkpt lat="34.969474" lon="137.845545">
<ele>151.870000</ele>
<time>2024-07-19T08:20:21Z</time>
<extensions>
<kashmir3d:speed>1.11</kashmir3d:speed>
</extensions>
</trkpt>
<trkpt lat="34.969485" lon="137.845512">
<ele>150.860000</ele>
<time>2024-07-19T08:20:26Z</time>
<extensions>
<kashmir3d:speed>0.68</kashmir3d:speed>
</extensions>
</trkpt>
<trkpt lat="34.969485" lon="137.845512">
<ele>150.860000</ele>
<time>2024-07-19T08:20:26Z</time>
<extensions>
<kashmir3d:speed>0.00</kashmir3d:speed>
</extensions>
</trkpt>
<trkpt lat="34.969469" lon="137.845459">
<ele>150.860000</ele>
<time>2024-07-19T08:20:30Z</time>
<extensions>
<kashmir3d:speed>1.11</kashmir3d:speed>
</extensions>
</trkpt>
<trkpt lat="34.969443" lon="137.845373">
<ele>148.450000</ele>
<time>2024-07-19T08:20:38Z</time>
<extensions>
<kashmir3d:speed>1.11</kashmir3d:speed>
</extensions>
</trkpt>
<trkpt lat="34.969417" lon="137.845287">
<ele>149.600000</ele>
<time>2024-07-19T08:20:48Z</time>
<extensions>
<kashmir3d:speed>0.87</kashmir3d:speed>
</extensions>
</trkpt>
<trkpt lat="34.969391" lon="137.845201">
<ele>152.370000</ele>
<time>2024-07-19T08:20:55Z</time>
<extensions>
<kashmir3d:speed>1.11</kashmir3d:speed>
</extensions>
</trkpt>
<trkpt lat="34.969387" lon="137.845188">
<ele>151.990000</ele>
<time>2024-07-19T08:20:57Z</time>
<extensions>
<kashmir3d:speed>0.70</kashmir3d:speed>
</extensions>
</trkpt>
<trkpt lat="34.969387" lon="137.845188">
<ele>151.990000</ele>
<time>2024-07-19T08:20:57Z</time>
<extensions>
<kashmir3d:speed>0.00</kashmir3d:speed>
</extensions>
</trkpt>
<trkpt lat="34.969278" lon="137.845116">
<ele>148.790000</ele>
<time>2024-07-19T08:21:15Z</time>
<extensions>
<kashmir3d:speed>0.76</kashmir3d:speed>
</extensions>
</trkpt>
<trkpt lat="34.969266" lon="137.845108">
<ele>153.200000</ele>
<time>2024-07-19T08:21:28Z</time>
<extensions>
<kashmir3d:speed>0.11</kashmir3d:speed>
</extensions>
</trkpt>
<trkpt lat="34.969266" lon="137.845108">
<ele>153.200000</ele>
<time>2024-07-19T08:21:28Z</time>
<extensions>
<kashmir3d:speed>0.00</kashmir3d:speed>
</extensions>
</trkpt>
<trkpt lat="34.969250" lon="137.845096">
<ele>150.560000</ele>
<time>2024-07-19T08:21:35Z</time>
<extensions>
<kashmir3d:speed>0.32</kashmir3d:speed>
</extensions>
</trkpt>
<trkpt lat="34.969179" lon="137.845045">
<ele>148.570000</ele>
<time>2024-07-19T08:21:49Z</time>
<extensions>
<kashmir3d:speed>0.67</kashmir3d:speed>
</extensions>
</trkpt>
<trkpt lat="34.969123" lon="137.845004">
<ele>153.580000</ele>
<time>2024-07-19T08:22:40Z</time>
<extensions>
<kashmir3d:speed>0.14</kashmir3d:speed>
</extensions>
</trkpt>
<trkpt lat="34.969123" lon="137.845004">
<ele>153.580000</ele>
<time>2024-07-19T08:22:40Z</time>
<extensions>
<kashmir3d:speed>0.00</kashmir3d:speed>
</extensions>
</trkpt>
<trkpt lat="34.969099" lon="137.844944">
<ele>152.460000</ele>
<time>2024-07-19T08:22:56Z</time>
<extensions>
<kashmir3d:speed>0.39</kashmir3d:speed>
</extensions>
</trkpt>
<trkpt lat="34.969089" lon="137.844918">
<ele>153.280000</ele>
<time>2024-07-19T08:23:00Z</time>
<extensions>
<kashmir3d:speed>0.57</kashmir3d:speed>
</extensions>
</trkpt>
<trkpt lat="34.969089" lon="137.844918">
<ele>153.280000</ele>
<time>2024-07-19T08:23:00Z</time>
<extensions>
<kashmir3d:speed>0.00</kashmir3d:speed>
</extensions>
</trkpt>
<trkpt lat="34.969112" lon="137.844858">
<ele>155.110000</ele>
<time>2024-07-19T08:23:11Z</time>
<extensions>
<kashmir3d:speed>0.58</kashmir3d:speed>
</extensions>
</trkpt>
<trkpt lat="34.969144" lon="137.844772">
<ele>156.820000</ele>
<time>2024-07-19T08:23:18Z</time>
<extensions>
<kashmir3d:speed>1.11</kashmir3d:speed>
</extensions>
</trkpt>
<trkpt lat="34.969165" lon="137.844715">
<ele>155.620000</ele>
<time>2024-07-19T08:23:26Z</time>
<extensions>
<kashmir3d:speed>0.81</kashmir3d:speed>
</extensions>
</trkpt>
<trkpt lat="34.969165" lon="137.844715">
<ele>155.620000</ele>
<time>2024-07-19T08:23:26Z</time>
<extensions>
<kashmir3d:speed>0.00</kashmir3d:speed>
</extensions>
</trkpt>
<trkpt lat="34.969183" lon="137.844687">
<ele>161.220000</ele>
<time>2024-07-19T08:23:38Z</time>
<extensions>
<kashmir3d:speed>0.27</kashmir3d:speed>
</extensions>
</trkpt>
<trkpt lat="34.969237" lon="137.844601">
<ele>158.670000</ele>
<time>2024-07-19T08:24:00Z</time>
<extensions>
<kashmir3d:speed>0.44</kashmir3d:speed>
</extensions>
</trkpt>
<trkpt lat="34.969239" lon="137.844597">
<ele>154.150000</ele>
<time>2024-07-19T08:24:25Z</time>
<extensions>
<kashmir3d:speed>0.02</kashmir3d:speed>
</extensions>
</trkpt>
<trkpt lat="34.969239" lon="137.844597">
<ele>154.150000</ele>
<time>2024-07-19T08:24:25Z</time>
<extensions>
<kashmir3d:speed>0.00</kashmir3d:speed>
</extensions>
</trkpt>
<trkpt lat="34.969242" lon="137.844515">
<ele>154.150000</ele>
<time>2024-07-19T08:24:32Z</time>
<extensions>
<kashmir3d:speed>1.11</kashmir3d:speed>
</extensions>
</trkpt>
<trkpt lat="34.969245" lon="137.844429">
<ele>151.090000</ele>
<time>2024-07-19T08:24:55Z</time>
<extensions>
<kashmir3d:speed>0.33</kashmir3d:speed>
</extensions>
</trkpt>
<trkpt lat="34.969246" lon="137.844376">
<ele>150.230000</ele>
<time>2024-07-19T08:25:01Z</time>
<extensions>
<kashmir3d:speed>0.84</kashmir3d:speed>
</extensions>
</trkpt>
<trkpt lat="34.969246" lon="137.844376">
<ele>150.230000</ele>
<time>2024-07-19T08:25:01Z</time>
<extensions>
<kashmir3d:speed>0.00</kashmir3d:speed>
</extensions>
</trkpt>
<trkpt lat="34.969224" lon="137.844343">
<ele>150.230000</ele>
<time>2024-07-19T08:25:05Z</time>
<extensions>
<kashmir3d:speed>1.11</kashmir3d:speed>
</extensions>
</trkpt>
<trkpt lat="34.969165" lon="137.844257">
<ele>145.780000</ele>
<time>2024-07-19T08:25:38Z</time>
<extensions>
<kashmir3d:speed>0.31</kashmir3d:speed>
</extensions>
</trkpt>
<trkpt lat="34.969106" lon="137.844172">
<ele>142.990000</ele>
<time>2024-07-19T08:25:47Z</time>
<extensions>
<kashmir3d:speed>1.11</kashmir3d:speed>
</extensions>
</trkpt>
<trkpt lat="34.969078" lon="137.844131">
<ele>146.590000</ele>
<time>2024-07-19T08:26:01Z</time>
<extensions>
<kashmir3d:speed>0.34</kashmir3d:speed>
</extensions>
</trkpt>
<trkpt lat="34.969078" lon="137.844131">
<ele>146.590000</ele>
<time>2024-07-19T08:26:01Z</time>
<extensions>
<kashmir3d:speed>0.00</kashmir3d:speed>
</extensions>
</trkpt>
<trkpt lat="34.969034" lon="137.844086">
<ele>142.850000</ele>
<time>2024-07-19T08:26:14Z</time>
<extensions>
<kashmir3d:speed>0.51</kashmir3d:speed>
</extensions>
</trkpt>
<trkpt lat="34.968951" lon="137.844000">
<ele>143.350000</ele>
<time>2024-07-19T08:26:29Z</time>
<extensions>
<kashmir3d:speed>0.79</kashmir3d:speed>
</extensions>
</trkpt>
<trkpt lat="34.968942" lon="137.843990">
<ele>148.200000</ele>
<time>2024-07-19T08:27:14Z</time>
<extensions>
<kashmir3d:speed>0.03</kashmir3d:speed>
</extensions>
</trkpt>
<trkpt lat="34.968942" lon="137.843990">
<ele>148.200000</ele>
<time>2024-07-19T08:27:14Z</time>
<extensions>
<kashmir3d:speed>0.00</kashmir3d:speed>
</extensions>
</trkpt>
<trkpt lat="34.968910" lon="137.843914">
<ele>148.200000</ele>
<time>2024-07-19T08:27:21Z</time>
<extensions>
<kashmir3d:speed>1.11</kashmir3d:speed>
</extensions>
</trkpt>
<trkpt lat="34.968882" lon="137.843848">
<ele>149.730000</ele>
<time>2024-07-19T08:27:41Z</time>
<extensions>
<kashmir3d:speed>0.34</kashmir3d:speed>
</extensions>
</trkpt>
<trkpt lat="34.968882" lon="137.843848">
<ele>149.730000</ele>
<time>2024-07-19T08:27:41Z</time>
<extensions>
<kashmir3d:speed>0.00</kashmir3d:speed>
</extensions>
</trkpt>
<trkpt lat="34.968891" lon="137.843828">
<ele>149.730000</ele>
<time>2024-07-19T08:27:43Z</time>
<extensions>
<kashmir3d:speed>1.11</kashmir3d:speed>
</extensions>
</trkpt>
<trkpt lat="34.968928" lon="137.843742">
<ele>153.630000</ele>
<time>2024-07-19T08:27:51Z</time>
<extensions>
<kashmir3d:speed>1.11</kashmir3d:speed>
</extensions>
</trkpt>
<trkpt lat="34.968964" lon="137.843657">
<ele>152.980000</ele>
<time>2024-07-19T08:28:00Z</time>
<extensions>
<kashmir3d:speed>0.98</kashmir3d:speed>
</extensions>
</trkpt>
<trkpt lat="34.968988" lon="137.843602">
<ele>155.720000</ele>
<time>2024-07-19T08:28:05Z</time>
<extensions>
<kashmir3d:speed>1.11</kashmir3d:speed>
</extensions>
</trkpt>
<trkpt lat="34.968988" lon="137.843602">
<ele>155.720000</ele>
<time>2024-07-19T08:28:05Z</time>
<extensions>
<kashmir3d:speed>0.00</kashmir3d:speed>
</extensions>
</trkpt>
<trkpt lat="34.968982" lon="137.843571">
<ele>155.720000</ele>
<time>2024-07-19T08:28:07Z</time>
<extensions>
<kashmir3d:speed>1.11</kashmir3d:speed>
</extensions>
</trkpt>
<trkpt lat="34.968965" lon="137.843485">
<ele>147.750000</ele>
<time>2024-07-19T08:28:27Z</time>
<extensions>
<kashmir3d:speed>0.40</kashmir3d:speed>
</extensions>
</trkpt>
<trkpt lat="34.968957" lon="137.843445">
<ele>149.690000</ele>
<time>2024-07-19T08:28:34Z</time>
<extensions>
<kashmir3d:speed>0.55</kashmir3d:speed>
</extensions>
</trkpt>
<trkpt lat="34.968957" lon="137.843445">
<ele>149.690000</ele>
<time>2024-07-19T08:28:34Z</time>
<extensions>
<kashmir3d:speed>0.00</kashmir3d:speed>
</extensions>
</trkpt>
<trkpt lat="34.968898" lon="137.843422">
<ele>147.820000</ele>
<time>2024-07-19T08:28:44Z</time>
<extensions>
<kashmir3d:speed>0.72</kashmir3d:speed>
</extensions>
</trkpt>
<trkpt lat="34.968828" lon="137.843396">
<ele>151.180000</ele>
<time>2024-07-19T08:28:57Z</time>
<extensions>
<kashmir3d:speed>0.61</kashmir3d:speed>
</extensions>
</trkpt>
<trkpt lat="34.968757" lon="137.843369">
<ele>150.260000</ele>
<time>2024-07-19T08:29:06Z</time>
<extensions>
<kashmir3d:speed>0.92</kashmir3d:speed>
</extensions>
</trkpt>
<trkpt lat="34.968739" lon="137.843362">
<ele>150.260000</ele>
<time>2024-07-19T08:29:08Z</time>
<extensions>
<kashmir3d:speed>1.11</kashmir3d:speed>
</extensions>
</trkpt>
<trkpt lat="34.968739" lon="137.843362">
<ele>150.260000</ele>
<time>2024-07-19T08:29:08Z</time>
<extensions>
<kashmir3d:speed>0.00</kashmir3d:speed>
</extensions>
</trkpt>
<trkpt lat="34.968687" lon="137.843358">
<ele>149.820000</ele>
<time>2024-07-19T08:29:14Z</time>
<extensions>
<kashmir3d:speed>0.98</kashmir3d:speed>
</extensions>
</trkpt>
<trkpt lat="34.968617" lon="137.843353">
<ele>148.470000</ele>
<time>2024-07-19T08:29:23Z</time>
<extensions>
<kashmir3d:speed>0.85</kashmir3d:speed>
</extensions>
</trkpt>
<trkpt lat="34.968546" lon="137.843348">
<ele>146.510000</ele>
<time>2024-07-19T08:29:30Z</time>
<extensions>
<kashmir3d:speed>1.11</kashmir3d:speed>
</extensions>
</trkpt>
<trkpt lat="34.968476" lon="137.843342">
<ele>145.420000</ele>
<time>2024-07-19T08:29:40Z</time>
<extensions>
<kashmir3d:speed>0.78</kashmir3d:speed>
</extensions>
</trkpt>
<trkpt lat="34.968447" lon="137.843340">
<ele>145.420000</ele>
<time>2024-07-19T08:29:43Z</time>
<extensions>
<kashmir3d:speed>1.11</kashmir3d:speed>
</extensions>
</trkpt>
<trkpt lat="34.968447" lon="137.843340">
<ele>145.420000</ele>
<time>2024-07-19T08:29:43Z</time>
<extensions>
<kashmir3d:speed>0.00</kashmir3d:speed>
</extensions>
</trkpt>
<trkpt lat="34.968417" lon="137.843313">
<ele>145.420000</ele>
<time>2024-07-19T08:29:47Z</time>
<extensions>
<kashmir3d:speed>1.11</kashmir3d:speed>
</extensions>
</trkpt>
<trkpt lat="34.968322" lon="137.843227">
<ele>147.410000</ele>
<time>2024-07-19T08:30:04Z</time>
<extensions>
<kashmir3d:speed>0.76</kashmir3d:speed>
</extensions>
</trkpt>
<trkpt lat="34.968281" lon="137.843190">
<ele>151.470000</ele>
<time>2024-07-19T08:30:16Z</time>
<extensions>
<kashmir3d:speed>0.46</kashmir3d:speed>
</extensions>
</trkpt>
<trkpt lat="34.968281" lon="137.843190">
<ele>151.470000</ele>
<time>2024-07-19T08:30:16Z</time>
<extensions>
<kashmir3d:speed>0.00</kashmir3d:speed>
</extensions>
</trkpt>
<trkpt lat="34.968265" lon="137.843181">
<ele>148.930000</ele>
<time>2024-07-19T08:30:23Z</time>
<extensions>
<kashmir3d:speed>0.31</kashmir3d:speed>
</extensions>
</trkpt>
<trkpt lat="34.968195" lon="137.843140">
<ele>151.050000</ele>
<time>2024-07-19T08:30:36Z</time>
<extensions>
<kashmir3d:speed>0.64</kashmir3d:speed>
</extensions>
</trkpt>
<trkpt lat="34.968124" lon="137.843100">
<ele>150.070000</ele>
<time>2024-07-19T08:30:46Z</time>
<extensions>
<kashmir3d:speed>0.91</kashmir3d:speed>
</extensions>
</trkpt>
<trkpt lat="34.968054" lon="137.843059">
<ele>149.130000</ele>
<time>2024-07-19T08:30:56Z</time>
<extensions>
<kashmir3d:speed>0.84</kashmir3d:speed>
</extensions>
</trkpt>
<trkpt lat="34.967984" lon="137.843019">
<ele>152.460000</ele>
<time>2024-07-19T08:31:34Z</time>
<extensions>
<kashmir3d:speed>0.23</kashmir3d:speed>
</extensions>
</trkpt>
<trkpt lat="34.967983" lon="137.843018">
<ele>152.460000</ele>
<time>2024-07-19T08:31:34Z</time>
<extensions>
<kashmir3d:speed>1.11</kashmir3d:speed>
</extensions>
</trkpt>
<trkpt lat="34.967983" lon="137.843018">
<ele>152.460000</ele>
<time>2024-07-19T08:31:34Z</time>
<extensions>
<kashmir3d:speed>0.00</kashmir3d:speed>
</extensions>
</trkpt>
<trkpt lat="34.967992" lon="137.842970">
<ele>152.560000</ele>
<time>2024-07-19T08:31:38Z</time>
<extensions>
<kashmir3d:speed>1.06</kashmir3d:speed>
</extensions>
</trkpt>
<trkpt lat="34.968007" lon="137.842884">
<ele>154.380000</ele>
<time>2024-07-19T08:31:49Z</time>
<extensions>
<kashmir3d:speed>0.76</kashmir3d:speed>
</extensions>
</trkpt>
<trkpt lat="34.968010" lon="137.842871">
<ele>155.460000</ele>
<time>2024-07-19T08:31:50Z</time>
<extensions>
<kashmir3d:speed>1.11</kashmir3d:speed>
</extensions>
</trkpt>
<trkpt lat="34.968010" lon="137.842871">
<ele>155.460000</ele>
<time>2024-07-19T08:31:50Z</time>
<extensions>
<kashmir3d:speed>0.00</kashmir3d:speed>
</extensions>
</trkpt>
<trkpt lat="34.968052" lon="137.842798">
<ele>155.460000</ele>
<time>2024-07-19T08:31:57Z</time>
<extensions>
<kashmir3d:speed>1.11</kashmir3d:speed>
</extensions>
</trkpt>
<trkpt lat="34.968101" lon="137.842712">
<ele>153.820000</ele>
<time>2024-07-19T08:32:06Z</time>
<extensions>
<kashmir3d:speed>1.11</kashmir3d:speed>
</extensions>
</trkpt>
<trkpt lat="34.968151" lon="137.842627">
<ele>153.020000</ele>
<time>2024-07-19T08:32:14Z</time>
<extensions>
<kashmir3d:speed>1.11</kashmir3d:speed>
</extensions>
</trkpt>
<trkpt lat="34.968201" lon="137.842541">
<ele>153.370000</ele>
<time>2024-07-19T08:32:23Z</time>
<extensions>
<kashmir3d:speed>1.11</kashmir3d:speed>
</extensions>
</trkpt>
<trkpt lat="34.968250" lon="137.842455">
<ele>152.750000</ele>
<time>2024-07-19T08:32:32Z</time>
<extensions>
<kashmir3d:speed>1.11</kashmir3d:speed>
</extensions>
</trkpt>
<trkpt lat="34.968300" lon="137.842369">
<ele>152.620000</ele>
<time>2024-07-19T08:32:40Z</time>
<extensions>
<kashmir3d:speed>1.11</kashmir3d:speed>
</extensions>
</trkpt>
<trkpt lat="34.968331" lon="137.842315">
<ele>151.410000</ele>
<time>2024-07-19T08:32:46Z</time>
<extensions>
<kashmir3d:speed>1.11</kashmir3d:speed>
</extensions>
</trkpt>
<trkpt lat="34.968331" lon="137.842315">
<ele>151.410000</ele>
<time>2024-07-19T08:32:46Z</time>
<extensions>
<kashmir3d:speed>0.00</kashmir3d:speed>
</extensions>
</trkpt>
<trkpt lat="34.968335" lon="137.842312">
<ele>151.410000</ele>
<time>2024-07-19T08:32:46Z</time>
<extensions>
<kashmir3d:speed>1.11</kashmir3d:speed>
</extensions>
</trkpt>
<trkpt lat="34.968406" lon="137.842263">
<ele>151.340000</ele>
<time>2024-07-19T08:32:54Z</time>
<extensions>
<kashmir3d:speed>1.09</kashmir3d:speed>
</extensions>
</trkpt>
<trkpt lat="34.968476" lon="137.842214">
<ele>152.630000</ele>
<time>2024-07-19T08:33:05Z</time>
<extensions>
<kashmir3d:speed>0.86</kashmir3d:speed>
</extensions>
</trkpt>
<trkpt lat="34.968546" lon="137.842165">
<ele>150.830000</ele>
<time>2024-07-19T08:33:13Z</time>
<extensions>
<kashmir3d:speed>1.11</kashmir3d:speed>
</extensions>
</trkpt>
<trkpt lat="34.968617" lon="137.842116">
<ele>154.570000</ele>
<time>2024-07-19T08:33:55Z</time>
<extensions>
<kashmir3d:speed>0.22</kashmir3d:speed>
</extensions>
</trkpt>
<trkpt lat="34.968687" lon="137.842067">
<ele>153.620000</ele>
<time>2024-07-19T08:34:05Z</time>
<extensions>
<kashmir3d:speed>0.84</kashmir3d:speed>
</extensions>
</trkpt>
<trkpt lat="34.968757" lon="137.842018">
<ele>151.930000</ele>
<time>2024-07-19T08:34:29Z</time>
<extensions>
<kashmir3d:speed>0.39</kashmir3d:speed>
</extensions>
</trkpt>
<trkpt lat="34.968767" lon="137.842011">
<ele>155.270000</ele>
<time>2024-07-19T08:34:39Z</time>
<extensions>
<kashmir3d:speed>0.13</kashmir3d:speed>
</extensions>
</trkpt>
<trkpt lat="34.968767" lon="137.842011">
<ele>155.270000</ele>
<time>2024-07-19T08:34:39Z</time>
<extensions>
<kashmir3d:speed>0.00</kashmir3d:speed>
</extensions>
</trkpt>
<trkpt lat="34.968829" lon="137.841940">
<ele>158.770000</ele>
<time>2024-07-19T08:34:53Z</time>
<extensions>
<kashmir3d:speed>0.66</kashmir3d:speed>
</extensions>
</trkpt>
<trkpt lat="34.968903" lon="137.841854">
<ele>160.290000</ele>
<time>2024-07-19T08:35:11Z</time>
<extensions>
<kashmir3d:speed>0.62</kashmir3d:speed>
</extensions>
</trkpt>
<trkpt lat="34.968914" lon="137.841841">
<ele>155.770000</ele>
<time>2024-07-19T08:35:37Z</time>
<extensions>
<kashmir3d:speed>0.07</kashmir3d:speed>
</extensions>
</trkpt>
<trkpt lat="34.968914" lon="137.841841">
<ele>155.770000</ele>
<time>2024-07-19T08:35:37Z</time>
<extensions>
<kashmir3d:speed>0.00</kashmir3d:speed>
</extensions>
</trkpt>
<trkpt lat="34.968942" lon="137.841768">
<ele>155.770000</ele>
<time>2024-07-19T08:35:44Z</time>
<extensions>
<kashmir3d:speed>1.11</kashmir3d:speed>
</extensions>
</trkpt>
<trkpt lat="34.968968" lon="137.841700">
<ele>150.610000</ele>
<time>2024-07-19T08:36:18Z</time>
<extensions>
<kashmir3d:speed>0.20</kashmir3d:speed>
</extensions>
</trkpt>
<trkpt lat="34.968968" lon="137.841700">
<ele>150.610000</ele>
<time>2024-07-19T08:36:18Z</time>
<extensions>
<kashmir3d:speed>0.00</kashmir3d:speed>
</extensions>
</trkpt>
<trkpt lat="34.968956" lon="137.841682">
<ele>150.610000</ele>
<time>2024-07-19T08:36:20Z</time>
<extensions>
<kashmir3d:speed>1.11</kashmir3d:speed>
</extensions>
</trkpt>
<trkpt lat="34.968940" lon="137.841584">
<ele>147.790000</ele>
<time>2024-07-19T08:36:43Z</time>
<extensions>
<kashmir3d:speed>0.39</kashmir3d:speed>
</extensions>
</trkpt>
<trkpt lat="34.968868" lon="137.841503">
<ele>147.780000</ele>
<time>2024-07-19T08:36:53Z</time>
<extensions>
<kashmir3d:speed>1.11</kashmir3d:speed>
</extensions>
</trkpt>
<trkpt lat="34.968780" lon="137.841427">
<ele>142.580000</ele>
<time>2024-07-19T08:37:12Z</time>
<extensions>
<kashmir3d:speed>0.62</kashmir3d:speed>
</extensions>
</trkpt>
<trkpt lat="34.968335" lon="137.841153">
<ele>138.780000</ele>
<time>2024-07-19T08:38:02Z</time>
<extensions>
<kashmir3d:speed>1.11</kashmir3d:speed>
</extensions>
</trkpt>
<trkpt lat="34.968167" lon="137.840850">
<ele>145.600000</ele>
<time>2024-07-19T08:39:33Z</time>
<extensions>
<kashmir3d:speed>0.36</kashmir3d:speed>
</extensions>
</trkpt>
<trkpt lat="34.968153" lon="137.840717">
<ele>151.130000</ele>
<time>2024-07-19T08:39:59Z</time>
<extensions>
<kashmir3d:speed>0.47</kashmir3d:speed>
</extensions>
</trkpt>
<trkpt lat="34.968347" lon="137.840085">
<ele>155.820000</ele>
<time>2024-07-19T08:41:03Z</time>
<extensions>
<kashmir3d:speed>0.96</kashmir3d:speed>
</extensions>
</trkpt>
<trkpt lat="34.968333" lon="137.839844">
<ele>150.340000</ele>
<time>2024-07-19T08:41:32Z</time>
<extensions>
<kashmir3d:speed>0.77</kashmir3d:speed>
</extensions>
</trkpt>
<trkpt lat="34.968193" lon="137.839623">
<ele>146.550000</ele>
<time>2024-07-19T08:42:02Z</time>
<extensions>
<kashmir3d:speed>0.86</kashmir3d:speed>
</extensions>
</trkpt>
<trkpt lat="34.968193" lon="137.839622">
<ele>146.550000</ele>
<time>2024-07-19T08:42:02Z</time>
<extensions>
<kashmir3d:speed>1.11</kashmir3d:speed>
</extensions>
</trkpt>
<trkpt lat="34.968207" lon="137.839537">
<ele>152.100000</ele>
<time>2024-07-19T08:42:09Z</time>
<extensions>
<kashmir3d:speed>1.11</kashmir3d:speed>
</extensions>
</trkpt>
<trkpt lat="34.968221" lon="137.839451">
<ele>152.470000</ele>
<time>2024-07-19T08:42:18Z</time>
<extensions>
<kashmir3d:speed>0.87</kashmir3d:speed>
</extensions>
</trkpt>
<trkpt lat="34.968229" lon="137.839402">
<ele>151.180000</ele>
<time>2024-07-19T08:42:24Z</time>
<extensions>
<kashmir3d:speed>0.74</kashmir3d:speed>
</extensions>
</trkpt>
<trkpt lat="34.968229" lon="137.839402">
<ele>151.180000</ele>
<time>2024-07-19T08:42:24Z</time>
<extensions>
<kashmir3d:speed>0.00</kashmir3d:speed>
</extensions>
</trkpt>
<trkpt lat="34.968218" lon="137.839365">
<ele>151.180000</ele>
<time>2024-07-19T08:42:28Z</time>
<extensions>
<kashmir3d:speed>1.11</kashmir3d:speed>
</extensions>
</trkpt>
<trkpt lat="34.968192" lon="137.839279">
<ele>145.520000</ele>
<time>2024-07-19T08:43:06Z</time>
<extensions>
<kashmir3d:speed>0.22</kashmir3d:speed>
</extensions>
</trkpt>
<trkpt lat="34.968167" lon="137.839193">
<ele>144.980000</ele>
<time>2024-07-19T08:43:13Z</time>
<extensions>
<kashmir3d:speed>1.11</kashmir3d:speed>
</extensions>
</trkpt>
<trkpt lat="34.968141" lon="137.839108">
<ele>146.520000</ele>
<time>2024-07-19T08:43:23Z</time>
<extensions>
<kashmir3d:speed>0.81</kashmir3d:speed>
</extensions>
</trkpt>
<trkpt lat="34.968127" lon="137.839060">
<ele>148.710000</ele>
<time>2024-07-19T08:43:32Z</time>
<extensions>
<kashmir3d:speed>0.57</kashmir3d:speed>
</extensions>
</trkpt>
<trkpt lat="34.968127" lon="137.839060">
<ele>148.710000</ele>
<time>2024-07-19T08:43:32Z</time>
<extensions>
<kashmir3d:speed>0.00</kashmir3d:speed>
</extensions>
</trkpt>
<trkpt lat="34.968117" lon="137.839022">
<ele>142.850000</ele>
<time>2024-07-19T08:43:44Z</time>
<extensions>
<kashmir3d:speed>0.29</kashmir3d:speed>
</extensions>
</trkpt>
<trkpt lat="34.968094" lon="137.838936">
<ele>145.260000</ele>
<time>2024-07-19T08:43:56Z</time>
<extensions>
<kashmir3d:speed>0.70</kashmir3d:speed>
</extensions>
</trkpt>
<trkpt lat="34.968071" lon="137.838850">
<ele>147.270000</ele>
<time>2024-07-19T08:44:04Z</time>
<extensions>
<kashmir3d:speed>1.11</kashmir3d:speed>
</extensions>
</trkpt>
<trkpt lat="34.968069" lon="137.838840">
<ele>147.660000</ele>
<time>2024-07-19T08:44:04Z</time>
<extensions>
<kashmir3d:speed>1.11</kashmir3d:speed>
</extensions>
</trkpt>
<trkpt lat="34.968069" lon="137.838840">
<ele>147.660000</ele>
<time>2024-07-19T08:44:04Z</time>
<extensions>
<kashmir3d:speed>0.00</kashmir3d:speed>
</extensions>
</trkpt>
<trkpt lat="34.968060" lon="137.838764">
<ele>147.660000</ele>
<time>2024-07-19T08:44:11Z</time>
<extensions>
<kashmir3d:speed>1.11</kashmir3d:speed>
</extensions>
</trkpt>
<trkpt lat="34.968049" lon="137.838678">
<ele>142.860000</ele>
<time>2024-07-19T08:44:18Z</time>
<extensions>
<kashmir3d:speed>1.11</kashmir3d:speed>
</extensions>
</trkpt>
<trkpt lat="34.968039" lon="137.838593">
<ele>143.730000</ele>
<time>2024-07-19T08:44:27Z</time>
<extensions>
<kashmir3d:speed>0.91</kashmir3d:speed>
</extensions>
</trkpt>
<trkpt lat="34.968034" lon="137.838553">
<ele>144.830000</ele>
<time>2024-07-19T08:44:32Z</time>
<extensions>
<kashmir3d:speed>0.69</kashmir3d:speed>
</extensions>
</trkpt>
<trkpt lat="34.968034" lon="137.838553">
<ele>144.830000</ele>
<time>2024-07-19T08:44:32Z</time>
<extensions>
<kashmir3d:speed>0.00</kashmir3d:speed>
</extensions>
</trkpt>
<trkpt lat="34.968021" lon="137.838507">
<ele>144.830000</ele>
<time>2024-07-19T08:44:36Z</time>
<extensions>
<kashmir3d:speed>1.11</kashmir3d:speed>
</extensions>
</trkpt>
<trkpt lat="34.967996" lon="137.838421">
<ele>147.170000</ele>
<time>2024-07-19T08:44:48Z</time>
<extensions>
<kashmir3d:speed>0.71</kashmir3d:speed>
</extensions>
</trkpt>
<trkpt lat="34.967971" lon="137.838335">
<ele>144.870000</ele>
<time>2024-07-19T08:44:59Z</time>
<extensions>
<kashmir3d:speed>0.72</kashmir3d:speed>
</extensions>
</trkpt>
<trkpt lat="34.967953" lon="137.838276">
<ele>146.730000</ele>
<time>2024-07-19T08:45:21Z</time>
<extensions>
<kashmir3d:speed>0.26</kashmir3d:speed>
</extensions>
</trkpt>
<trkpt lat="34.967953" lon="137.838276">
<ele>146.730000</ele>
<time>2024-07-19T08:45:21Z</time>
<extensions>
<kashmir3d:speed>0.00</kashmir3d:speed>
</extensions>
</trkpt>
<trkpt lat="34.967950" lon="137.838249">
<ele>146.730000</ele>
<time>2024-07-19T08:45:23Z</time>
<extensions>
<kashmir3d:speed>1.11</kashmir3d:speed>
</extensions>
</trkpt>
<trkpt lat="34.967941" lon="137.838163">
<ele>147.680000</ele>
<time>2024-07-19T08:45:33Z</time>
<extensions>
<kashmir3d:speed>0.82</kashmir3d:speed>
</extensions>
</trkpt>
<trkpt lat="34.967933" lon="137.838093">
<ele>149.320000</ele>
<time>2024-07-19T08:45:54Z</time>
<extensions>
<kashmir3d:speed>0.31</kashmir3d:speed>
</extensions>
</trkpt>
<trkpt lat="34.967933" lon="137.838093">
<ele>149.320000</ele>
<time>2024-07-19T08:45:54Z</time>
<extensions>
<kashmir3d:speed>0.00</kashmir3d:speed>
</extensions>
</trkpt>
<trkpt lat="34.967942" lon="137.838078">
<ele>149.320000</ele>
<time>2024-07-19T08:45:55Z</time>
<extensions>
<kashmir3d:speed>1.11</kashmir3d:speed>
</extensions>
</trkpt>
<trkpt lat="34.967987" lon="137.837992">
<ele>152.340000</ele>
<time>2024-07-19T08:46:12Z</time>
<extensions>
<kashmir3d:speed>0.56</kashmir3d:speed>
</extensions>
</trkpt>
<trkpt lat="34.968033" lon="137.837906">
<ele>152.120000</ele>
<time>2024-07-19T08:46:20Z</time>
<extensions>
<kashmir3d:speed>1.11</kashmir3d:speed>
</extensions>
</trkpt>
<trkpt lat="34.968039" lon="137.837894">
<ele>151.810000</ele>
<time>2024-07-19T08:46:21Z</time>
<extensions>
<kashmir3d:speed>1.11</kashmir3d:speed>
</extensions>
</trkpt>
<trkpt lat="34.968039" lon="137.837894">
<ele>151.810000</ele>
<time>2024-07-19T08:46:21Z</time>
<extensions>
<kashmir3d:speed>0.00</kashmir3d:speed>
</extensions>
</trkpt>
<trkpt lat="34.968056" lon="137.837820">
<ele>155.830000</ele>
<time>2024-07-19T08:46:27Z</time>
<extensions>
<kashmir3d:speed>1.11</kashmir3d:speed>
</extensions>
</trkpt>
<trkpt lat="34.968070" lon="137.837760">
<ele>153.270000</ele>
<time>2024-07-19T08:46:46Z</time>
<extensions>
<kashmir3d:speed>0.30</kashmir3d:speed>
</extensions>
</trkpt>
<trkpt lat="34.968070" lon="137.837760">
<ele>153.270000</ele>
<time>2024-07-19T08:46:46Z</time>
<extensions>
<kashmir3d:speed>0.00</kashmir3d:speed>
</extensions>
</trkpt>
<trkpt lat="34.968062" lon="137.837734">
<ele>153.270000</ele>
<time>2024-07-19T08:46:49Z</time>
<extensions>
<kashmir3d:speed>1.11</kashmir3d:speed>
</extensions>
</trkpt>
<trkpt lat="34.968036" lon="137.837648">
<ele>150.550000</ele>
<time>2024-07-19T08:47:11Z</time>
<extensions>
<kashmir3d:speed>0.38</kashmir3d:speed>
</extensions>
</trkpt>
<trkpt lat="34.968028" lon="137.837623">
<ele>152.330000</ele>
<time>2024-07-19T08:47:13Z</time>
<extensions>
<kashmir3d:speed>1.11</kashmir3d:speed>
</extensions>
</trkpt>
<trkpt lat="34.968028" lon="137.837623">
<ele>152.330000</ele>
<time>2024-07-19T08:47:13Z</time>
<extensions>
<kashmir3d:speed>0.00</kashmir3d:speed>
</extensions>
</trkpt>
<trkpt lat="34.967984" lon="137.837612">
<ele>149.390000</ele>
<time>2024-07-19T08:47:22Z</time>
<extensions>
<kashmir3d:speed>0.54</kashmir3d:speed>
</extensions>
</trkpt>
<trkpt lat="34.967913" lon="137.837595">
<ele>145.990000</ele>
<time>2024-07-19T08:47:35Z</time>
<extensions>
<kashmir3d:speed>0.63</kashmir3d:speed>
</extensions>
</trkpt>
<trkpt lat="34.967843" lon="137.837577">
<ele>143.430000</ele>
<time>2024-07-19T08:47:42Z</time>
<extensions>
<kashmir3d:speed>1.11</kashmir3d:speed>
</extensions>
</trkpt>
<trkpt lat="34.967773" lon="137.837560">
<ele>147.900000</ele>
<time>2024-07-19T08:47:57Z</time>
<extensions>
<kashmir3d:speed>0.52</kashmir3d:speed>
</extensions>
</trkpt>
<trkpt lat="34.967745" lon="137.837553">
<ele>147.900000</ele>
<time>2024-07-19T08:48:00Z</time>
<extensions>
<kashmir3d:speed>1.11</kashmir3d:speed>
</extensions>
</trkpt>
<trkpt lat="34.967745" lon="137.837553">
<ele>147.900000</ele>
<time>2024-07-19T08:48:00Z</time>
<extensions>
<kashmir3d:speed>0.00</kashmir3d:speed>
</extensions>
</trkpt>
<trkpt lat="34.967702" lon="137.837517">
<ele>145.630000</ele>
<time>2024-07-19T08:48:10Z</time>
<extensions>
<kashmir3d:speed>0.62</kashmir3d:speed>
</extensions>
</trkpt>
<trkpt lat="34.967632" lon="137.837457">
<ele>145.480000</ele>
<time>2024-07-19T08:48:19Z</time>
<extensions>
<kashmir3d:speed>1.06</kashmir3d:speed>
</extensions>
</trkpt>
<trkpt lat="34.967598" lon="137.837427">
<ele>145.480000</ele>
<time>2024-07-19T08:48:23Z</time>
<extensions>
<kashmir3d:speed>1.11</kashmir3d:speed>
</extensions>
</trkpt>
<trkpt lat="34.967598" lon="137.837427">
<ele>145.480000</ele>
<time>2024-07-19T08:48:23Z</time>
<extensions>
<kashmir3d:speed>0.00</kashmir3d:speed>
</extensions>
</trkpt>
<trkpt lat="34.967591" lon="137.837391">
<ele>145.480000</ele>
<time>2024-07-19T08:48:26Z</time>
<extensions>
<kashmir3d:speed>1.11</kashmir3d:speed>
</extensions>
</trkpt>
<trkpt lat="34.967575" lon="137.837305">
<ele>148.840000</ele>
<time>2024-07-19T08:48:39Z</time>
<extensions>
<kashmir3d:speed>0.61</kashmir3d:speed>
</extensions>
</trkpt>
<trkpt lat="34.967564" lon="137.837243">
<ele>150.780000</ele>
<time>2024-07-19T08:48:48Z</time>
<extensions>
<kashmir3d:speed>0.67</kashmir3d:speed>
</extensions>
</trkpt>
<trkpt lat="34.967564" lon="137.837243">
<ele>150.780000</ele>
<time>2024-07-19T08:48:48Z</time>
<extensions>
<kashmir3d:speed>0.00</kashmir3d:speed>
</extensions>
</trkpt>
<trkpt lat="34.967560" lon="137.837219">
<ele>144.790000</ele>
<time>2024-07-19T08:49:00Z</time>
<extensions>
<kashmir3d:speed>0.19</kashmir3d:speed>
</extensions>
</trkpt>
<trkpt lat="34.967548" lon="137.837133">
<ele>146.820000</ele>
<time>2024-07-19T08:49:10Z</time>
<extensions>
<kashmir3d:speed>0.74</kashmir3d:speed>
</extensions>
</trkpt>
<trkpt lat="34.967536" lon="137.837048">
<ele>148.130000</ele>
<time>2024-07-19T08:49:17Z</time>
<extensions>
<kashmir3d:speed>1.11</kashmir3d:speed>
</extensions>
</trkpt>
<trkpt lat="34.967532" lon="137.837015">
<ele>149.550000</ele>
<time>2024-07-19T08:49:20Z</time>
<extensions>
<kashmir3d:speed>1.11</kashmir3d:speed>
</extensions>
</trkpt>
<trkpt lat="34.967532" lon="137.837015">
<ele>149.550000</ele>
<time>2024-07-19T08:49:20Z</time>
<extensions>
<kashmir3d:speed>0.00</kashmir3d:speed>
</extensions>
</trkpt>
<trkpt lat="34.967507" lon="137.836962">
<ele>149.550000</ele>
<time>2024-07-19T08:49:25Z</time>
<extensions>
<kashmir3d:speed>1.11</kashmir3d:speed>
</extensions>
</trkpt>
<trkpt lat="34.967465" lon="137.836876">
<ele>144.790000</ele>
<time>2024-07-19T08:49:41Z</time>
<extensions>
<kashmir3d:speed>0.57</kashmir3d:speed>
</extensions>
</trkpt>
<trkpt lat="34.967424" lon="137.836790">
<ele>146.560000</ele>
<time>2024-07-19T08:49:54Z</time>
<extensions>
<kashmir3d:speed>0.70</kashmir3d:speed>
</extensions>
</trkpt>
<trkpt lat="34.967383" lon="137.836704">
<ele>144.690000</ele>
<time>2024-07-19T08:50:07Z</time>
<extensions>
<kashmir3d:speed>0.69</kashmir3d:speed>
</extensions>
</trkpt>
<trkpt lat="34.967342" lon="137.836618">
<ele>143.910000</ele>
<time>2024-07-19T08:50:18Z</time>
<extensions>
<kashmir3d:speed>0.88</kashmir3d:speed>
</extensions>
</trkpt>
<trkpt lat="34.967335" lon="137.836604">
<ele>148.470000</ele>
<time>2024-07-19T08:51:00Z</time>
<extensions>
<kashmir3d:speed>0.04</kashmir3d:speed>
</extensions>
</trkpt>
<trkpt lat="34.967335" lon="137.836604">
<ele>148.470000</ele>
<time>2024-07-19T08:51:00Z</time>
<extensions>
<kashmir3d:speed>0.00</kashmir3d:speed>
</extensions>
</trkpt>
<trkpt lat="34.967321" lon="137.836533">
<ele>148.470000</ele>
<time>2024-07-19T08:51:06Z</time>
<extensions>
<kashmir3d:speed>1.11</kashmir3d:speed>
</extensions>
</trkpt>
<trkpt lat="34.967304" lon="137.836447">
<ele>150.010000</ele>
<time>2024-07-19T08:51:16Z</time>
<extensions>
<kashmir3d:speed>0.80</kashmir3d:speed>
</extensions>
</trkpt>
<trkpt lat="34.967299" lon="137.836422">
<ele>150.640000</ele>
<time>2024-07-19T08:51:24Z</time>
<extensions>
<kashmir3d:speed>0.30</kashmir3d:speed>
</extensions>
</trkpt>
<trkpt lat="34.967299" lon="137.836422">
<ele>150.640000</ele>
<time>2024-07-19T08:51:24Z</time>
<extensions>
<kashmir3d:speed>0.00</kashmir3d:speed>
</extensions>
</trkpt>
<trkpt lat="34.967306" lon="137.836361">
<ele>150.640000</ele>
<time>2024-07-19T08:51:29Z</time>
<extensions>
<kashmir3d:speed>1.11</kashmir3d:speed>
</extensions>
</trkpt>
<trkpt lat="34.967316" lon="137.836275">
<ele>150.850000</ele>
<time>2024-07-19T08:51:37Z</time>
<extensions>
<kashmir3d:speed>1.03</kashmir3d:speed>
</extensions>
</trkpt>
<trkpt lat="34.967325" lon="137.836189">
<ele>150.830000</ele>
<time>2024-07-19T08:51:44Z</time>
<extensions>
<kashmir3d:speed>1.08</kashmir3d:speed>
</extensions>
</trkpt>
<trkpt lat="34.967329" lon="137.836156">
<ele>151.130000</ele>
<time>2024-07-19T08:51:49Z</time>
<extensions>
<kashmir3d:speed>0.56</kashmir3d:speed>
</extensions>
</trkpt>
<trkpt lat="34.967329" lon="137.836156">
<ele>151.130000</ele>
<time>2024-07-19T08:51:49Z</time>
<extensions>
<kashmir3d:speed>0.00</kashmir3d:speed>
</extensions>
</trkpt>
<trkpt lat="34.967351" lon="137.836103">
<ele>157.120000</ele>
<time>2024-07-19T08:52:48Z</time>
<extensions>
<kashmir3d:speed>0.09</kashmir3d:speed>
</extensions>
</trkpt>
<trkpt lat="34.967388" lon="137.836018">
<ele>157.030000</ele>
<time>2024-07-19T08:52:56Z</time>
<extensions>
<kashmir3d:speed>1.11</kashmir3d:speed>
</extensions>
</trkpt>
<trkpt lat="34.967424" lon="137.835932">
<ele>161.500000</ele>
<time>2024-07-19T08:53:04Z</time>
<extensions>
<kashmir3d:speed>1.11</kashmir3d:speed>
</extensions>
</trkpt>
<trkpt lat="34.967448" lon="137.835875">
<ele>157.830000</ele>
<time>2024-07-19T08:53:29Z</time>
<extensions>
<kashmir3d:speed>0.23</kashmir3d:speed>
</extensions>
</trkpt>
<trkpt lat="34.967448" lon="137.835875">
<ele>157.830000</ele>
<time>2024-07-19T08:53:29Z</time>
<extensions>
<kashmir3d:speed>0.00</kashmir3d:speed>
</extensions>
</trkpt>
<trkpt lat="34.967457" lon="137.835846">
<ele>157.830000</ele>
<time>2024-07-19T08:53:32Z</time>
<extensions>
<kashmir3d:speed>1.11</kashmir3d:speed>
</extensions>
</trkpt>
<trkpt lat="34.967483" lon="137.835760">
<ele>154.290000</ele>
<time>2024-07-19T08:53:58Z</time>
<extensions>
<kashmir3d:speed>0.31</kashmir3d:speed>
</extensions>
</trkpt>
<trkpt lat="34.967500" lon="137.835704">
<ele>156.660000</ele>
<time>2024-07-19T08:54:07Z</time>
<extensions>
<kashmir3d:speed>0.62</kashmir3d:speed>
</extensions>
</trkpt>
<trkpt lat="34.967500" lon="137.835704">
<ele>156.660000</ele>
<time>2024-07-19T08:54:07Z</time>
<extensions>
<kashmir3d:speed>0.00</kashmir3d:speed>
</extensions>
</trkpt>
<trkpt lat="34.967495" lon="137.835674">
<ele>156.660000</ele>
<time>2024-07-19T08:54:09Z</time>
<extensions>
<kashmir3d:speed>1.11</kashmir3d:speed>
</extensions>
</trkpt>
<trkpt lat="34.967479" lon="137.835588">
<ele>148.830000</ele>
<time>2024-07-19T08:54:29Z</time>
<extensions>
<kashmir3d:speed>0.40</kashmir3d:speed>
</extensions>
</trkpt>
<trkpt lat="34.967463" lon="137.835503">
<ele>148.640000</ele>
<time>2024-07-19T08:54:37Z</time>
<extensions>
<kashmir3d:speed>1.11</kashmir3d:speed>
</extensions>
</trkpt>
<trkpt lat="34.967463" lon="137.835501">
<ele>151.140000</ele>
<time>2024-07-19T08:54:37Z</time>
<extensions>
<kashmir3d:speed>1.11</kashmir3d:speed>
</extensions>
</trkpt>
<trkpt lat="34.967463" lon="137.835501">
<ele>151.140000</ele>
<time>2024-07-19T08:54:37Z</time>
<extensions>
<kashmir3d:speed>0.00</kashmir3d:speed>
</extensions>
</trkpt>
<trkpt lat="34.967413" lon="137.835417">
<ele>148.120000</ele>
<time>2024-07-19T08:54:50Z</time>
<extensions>
<kashmir3d:speed>0.71</kashmir3d:speed>
</extensions>
</trkpt>
<trkpt lat="34.967366" lon="137.835337">
<ele>151.150000</ele>
<time>2024-07-19T08:54:58Z</time>
<extensions>
<kashmir3d:speed>1.11</kashmir3d:speed>
</extensions>
</trkpt>
<trkpt lat="34.967366" lon="137.835337">
<ele>151.150000</ele>
<time>2024-07-19T08:54:58Z</time>
<extensions>
<kashmir3d:speed>0.00</kashmir3d:speed>
</extensions>
</trkpt>
<trkpt lat="34.967364" lon="137.835331">
<ele>151.150000</ele>
<time>2024-07-19T08:54:59Z</time>
<extensions>
<kashmir3d:speed>1.11</kashmir3d:speed>
</extensions>
</trkpt>
<trkpt lat="34.967341" lon="137.835245">
<ele>148.090000</ele>
<time>2024-07-19T08:55:23Z</time>
<extensions>
<kashmir3d:speed>0.34</kashmir3d:speed>
</extensions>
</trkpt>
<trkpt lat="34.967332" lon="137.835208">
<ele>148.060000</ele>
<time>2024-07-19T08:55:26Z</time>
<extensions>
<kashmir3d:speed>1.09</kashmir3d:speed>
</extensions>
</trkpt>
<trkpt lat="34.967332" lon="137.835208">
<ele>148.060000</ele>
<time>2024-07-19T08:55:26Z</time>
<extensions>
<kashmir3d:speed>0.00</kashmir3d:speed>
</extensions>
</trkpt>
<trkpt lat="34.967278" lon="137.835159">
<ele>143.600000</ele>
<time>2024-07-19T08:55:40Z</time>
<extensions>
<kashmir3d:speed>0.53</kashmir3d:speed>
</extensions>
</trkpt>
<trkpt lat="34.967228" lon="137.835112">
<ele>145.950000</ele>
<time>2024-07-19T08:55:50Z</time>
<extensions>
<kashmir3d:speed>0.67</kashmir3d:speed>
</extensions>
</trkpt>
<trkpt lat="34.967228" lon="137.835112">
<ele>145.950000</ele>
<time>2024-07-19T08:55:50Z</time>
<extensions>
<kashmir3d:speed>0.00</kashmir3d:speed>
</extensions>
</trkpt>
<trkpt lat="34.967210" lon="137.835101">
<ele>141.950000</ele>
<time>2024-07-19T08:55:52Z</time>
<extensions>
<kashmir3d:speed>1.11</kashmir3d:speed>
</extensions>
</trkpt>
<trkpt lat="34.967140" lon="137.835057">
<ele>143.400000</ele>
<time>2024-07-19T08:56:03Z</time>
<extensions>
<kashmir3d:speed>0.84</kashmir3d:speed>
</extensions>
</trkpt>
<trkpt lat="34.967106" lon="137.835036">
<ele>143.400000</ele>
<time>2024-07-19T08:56:07Z</time>
<extensions>
<kashmir3d:speed>1.11</kashmir3d:speed>
</extensions>
</trkpt>
<trkpt lat="34.967106" lon="137.835036">
<ele>143.400000</ele>
<time>2024-07-19T08:56:07Z</time>
<extensions>
<kashmir3d:speed>0.00</kashmir3d:speed>
</extensions>
</trkpt>
<trkpt lat="34.967071" lon="137.834988">
<ele>143.400000</ele>
<time>2024-07-19T08:56:12Z</time>
<extensions>
<kashmir3d:speed>1.11</kashmir3d:speed>
</extensions>
</trkpt>
<trkpt lat="34.967007" lon="137.834902">
<ele>143.940000</ele>
<time>2024-07-19T08:56:21Z</time>
<extensions>
<kashmir3d:speed>1.11</kashmir3d:speed>
</extensions>
</trkpt>
<trkpt lat="34.966943" lon="137.834816">
<ele>143.720000</ele>
<time>2024-07-19T08:56:31Z</time>
<extensions>
<kashmir3d:speed>1.11</kashmir3d:speed>
</extensions>
</trkpt>
<trkpt lat="34.966937" lon="137.834809">
<ele>146.290000</ele>
<time>2024-07-19T08:56:36Z</time>
<extensions>
<kashmir3d:speed>0.17</kashmir3d:speed>
</extensions>
</trkpt>
<trkpt lat="34.966937" lon="137.834809">
<ele>146.290000</ele>
<time>2024-07-19T08:56:36Z</time>
<extensions>
<kashmir3d:speed>0.00</kashmir3d:speed>
</extensions>
</trkpt>
<trkpt lat="34.966890" lon="137.834730">
<ele>142.920000</ele>
<time>2024-07-19T08:56:51Z</time>
<extensions>
<kashmir3d:speed>0.63</kashmir3d:speed>
</extensions>
</trkpt>
<trkpt lat="34.966838" lon="137.834644">
<ele>142.340000</ele>
<time>2024-07-19T08:57:01Z</time>
<extensions>
<kashmir3d:speed>0.94</kashmir3d:speed>
</extensions>
</trkpt>
<trkpt lat="34.966820" lon="137.834615">
<ele>145.020000</ele>
<time>2024-07-19T08:57:11Z</time>
<extensions>
<kashmir3d:speed>0.32</kashmir3d:speed>
</extensions>
</trkpt>
<trkpt lat="34.966820" lon="137.834615">
<ele>145.020000</ele>
<time>2024-07-19T08:57:11Z</time>
<extensions>
<kashmir3d:speed>0.00</kashmir3d:speed>
</extensions>
</trkpt>
<trkpt lat="34.966817" lon="137.834558">
<ele>145.020000</ele>
<time>2024-07-19T08:57:16Z</time>
<extensions>
<kashmir3d:speed>1.11</kashmir3d:speed>
</extensions>
</trkpt>
<trkpt lat="34.966812" lon="137.834473">
<ele>146.430000</ele>
<time>2024-07-19T08:57:27Z</time>
<extensions>
<kashmir3d:speed>0.72</kashmir3d:speed>
</extensions>
</trkpt>
<trkpt lat="34.966812" lon="137.834471">
<ele>146.730000</ele>
<time>2024-07-19T08:57:27Z</time>
<extensions>
<kashmir3d:speed>0.26</kashmir3d:speed>
</extensions>
</trkpt>
<trkpt lat="34.966812" lon="137.834471">
<ele>146.730000</ele>
<time>2024-07-19T08:57:27Z</time>
<extensions>
<kashmir3d:speed>0.00</kashmir3d:speed>
</extensions>
</trkpt>
<trkpt lat="34.966852" lon="137.834387">
<ele>146.730000</ele>
<time>2024-07-19T08:57:35Z</time>
<extensions>
<kashmir3d:speed>1.11</kashmir3d:speed>
</extensions>
</trkpt>
<trkpt lat="34.966893" lon="137.834301">
<ele>147.650000</ele>
<time>2024-07-19T08:57:45Z</time>
<extensions>
<kashmir3d:speed>0.92</kashmir3d:speed>
</extensions>
</trkpt>
<trkpt lat="34.966933" lon="137.834216">
<ele>150.320000</ele>
<time>2024-07-19T08:58:08Z</time>
<extensions>
<kashmir3d:speed>0.40</kashmir3d:speed>
</extensions>
</trkpt>
<trkpt lat="34.966933" lon="137.834216">
<ele>150.320000</ele>
<time>2024-07-19T08:58:08Z</time>
<extensions>
<kashmir3d:speed>0.00</kashmir3d:speed>
</extensions>
</trkpt>
<trkpt lat="34.966933" lon="137.834215">
<ele>150.320000</ele>
<time>2024-07-19T08:58:08Z</time>
<extensions>
<kashmir3d:speed>1.11</kashmir3d:speed>
</extensions>
</trkpt>
<trkpt lat="34.966931" lon="137.834129">
<ele>148.720000</ele>
<time>2024-07-19T08:58:23Z</time>
<extensions>
<kashmir3d:speed>0.50</kashmir3d:speed>
</extensions>
</trkpt>
<trkpt lat="34.966929" lon="137.834044">
<ele>147.180000</ele>
<time>2024-07-19T08:58:39Z</time>
<extensions>
<kashmir3d:speed>0.51</kashmir3d:speed>
</extensions>
</trkpt>
<trkpt lat="34.966927" lon="137.833958">
<ele>140.930000</ele>
<time>2024-07-19T08:59:19Z</time>
<extensions>
<kashmir3d:speed>0.19</kashmir3d:speed>
</extensions>
</trkpt>
<trkpt lat="34.966926" lon="137.833872">
<ele>139.880000</ele>
<time>2024-07-19T08:59:28Z</time>
<extensions>
<kashmir3d:speed>0.88</kashmir3d:speed>
</extensions>
</trkpt>
<trkpt lat="34.966924" lon="137.833786">
<ele>139.140000</ele>
<time>2024-07-19T08:59:37Z</time>
<extensions>
<kashmir3d:speed>0.93</kashmir3d:speed>
</extensions>
</trkpt>
<trkpt lat="34.966922" lon="137.833700">
<ele>138.740000</ele>
<time>2024-07-19T08:59:45Z</time>
<extensions>
<kashmir3d:speed>1.01</kashmir3d:speed>
</extensions>
</trkpt>
<trkpt lat="34.966922" lon="137.833687">
<ele>138.640000</ele>
<time>2024-07-19T08:59:46Z</time>
<extensions>
<kashmir3d:speed>0.95</kashmir3d:speed>
</extensions>
</trkpt>
<trkpt lat="34.966922" lon="137.833687">
<ele>138.640000</ele>
<time>2024-07-19T08:59:46Z</time>
<extensions>
<kashmir3d:speed>0.00</kashmir3d:speed>
</extensions>
</trkpt>
<trkpt lat="34.966934" lon="137.833614">
<ele>143.620000</ele>
<time>2024-07-19T09:00:01Z</time>
<extensions>
<kashmir3d:speed>0.45</kashmir3d:speed>
</extensions>
</trkpt>
<trkpt lat="34.966948" lon="137.833529">
<ele>143.000000</ele>
<time>2024-07-19T09:00:08Z</time>
<extensions>
<kashmir3d:speed>1.11</kashmir3d:speed>
</extensions>
</trkpt>
<trkpt lat="34.966962" lon="137.833443">
<ele>142.160000</ele>
<time>2024-07-19T09:00:15Z</time>
<extensions>
<kashmir3d:speed>1.11</kashmir3d:speed>
</extensions>
</trkpt>
<trkpt lat="34.966974" lon="137.833365">
<ele>141.010000</ele>
<time>2024-07-19T09:00:24Z</time>
<extensions>
<kashmir3d:speed>0.86</kashmir3d:speed>
</extensions>
</trkpt>
<trkpt lat="34.966974" lon="137.833365">
<ele>141.010000</ele>
<time>2024-07-19T09:00:24Z</time>
<extensions>
<kashmir3d:speed>0.00</kashmir3d:speed>
</extensions>
</trkpt>
<trkpt lat="34.966977" lon="137.833357">
<ele>141.010000</ele>
<time>2024-07-19T09:00:24Z</time>
<extensions>
<kashmir3d:speed>1.11</kashmir3d:speed>
</extensions>
</trkpt>
<trkpt lat="34.967005" lon="137.833271">
<ele>142.580000</ele>
<time>2024-07-19T09:00:35Z</time>
<extensions>
<kashmir3d:speed>0.83</kashmir3d:speed>
</extensions>
</trkpt>
<trkpt lat="34.967032" lon="137.833185">
<ele>139.980000</ele>
<time>2024-07-19T09:00:46Z</time>
<extensions>
<kashmir3d:speed>0.71</kashmir3d:speed>
</extensions>
</trkpt>
<trkpt lat="34.967059" lon="137.833099">
<ele>138.370000</ele>
<time>2024-07-19T09:00:54Z</time>
<extensions>
<kashmir3d:speed>1.11</kashmir3d:speed>
</extensions>
</trkpt>
<trkpt lat="34.967063" lon="137.833088">
<ele>137.610000</ele>
<time>2024-07-19T09:00:56Z</time>
<extensions>
<kashmir3d:speed>0.46</kashmir3d:speed>
</extensions>
</trkpt>
<trkpt lat="34.967063" lon="137.833088">
<ele>137.610000</ele>
<time>2024-07-19T09:00:56Z</time>
<extensions>
<kashmir3d:speed>0.00</kashmir3d:speed>
</extensions>
</trkpt>
<trkpt lat="34.967061" lon="137.833014">
<ele>137.610000</ele>
<time>2024-07-19T09:01:02Z</time>
<extensions>
<kashmir3d:speed>1.11</kashmir3d:speed>
</extensions>
</trkpt>
<trkpt lat="34.967059" lon="137.832928">
<ele>136.850000</ele>
<time>2024-07-19T09:01:11Z</time>
<extensions>
<kashmir3d:speed>0.93</kashmir3d:speed>
</extensions>
</trkpt>
<trkpt lat="34.967059" lon="137.832919">
<ele>136.870000</ele>
<time>2024-07-19T09:01:12Z</time>
<extensions>
<kashmir3d:speed>1.06</kashmir3d:speed>
</extensions>
</trkpt>
<trkpt lat="34.967059" lon="137.832919">
<ele>136.870000</ele>
<time>2024-07-19T09:01:12Z</time>
<extensions>
<kashmir3d:speed>0.00</kashmir3d:speed>
</extensions>
</trkpt>
<trkpt lat="34.967029" lon="137.832842">
<ele>136.870000</ele>
<time>2024-07-19T09:01:19Z</time>
<extensions>
<kashmir3d:speed>1.11</kashmir3d:speed>
</extensions>
</trkpt>
<trkpt lat="34.967021" lon="137.832823">
<ele>137.500000</ele>
<time>2024-07-19T09:01:21Z</time>
<extensions>
<kashmir3d:speed>0.66</kashmir3d:speed>
</extensions>
</trkpt>
<trkpt lat="34.967021" lon="137.832823">
<ele>137.500000</ele>
<time>2024-07-19T09:01:21Z</time>
<extensions>
<kashmir3d:speed>0.00</kashmir3d:speed>
</extensions>
</trkpt>
<trkpt lat="34.966999" lon="137.832821">
<ele>137.530000</ele>
<time>2024-07-19T09:01:24Z</time>
<extensions>
<kashmir3d:speed>1.11</kashmir3d:speed>
</extensions>
</trkpt>
<trkpt lat="34.966929" lon="137.832813">
<ele>138.670000</ele>
<time>2024-07-19T09:01:31Z</time>
<extensions>
<kashmir3d:speed>1.11</kashmir3d:speed>
</extensions>
</trkpt>
<trkpt lat="34.966880" lon="137.832808">
<ele>138.670000</ele>
<time>2024-07-19T09:01:36Z</time>
<extensions>
<kashmir3d:speed>1.11</kashmir3d:speed>
</extensions>
</trkpt>
<trkpt lat="34.966880" lon="137.832808">
<ele>138.670000</ele>
<time>2024-07-19T09:01:36Z</time>
<extensions>
<kashmir3d:speed>0.00</kashmir3d:speed>
</extensions>
</trkpt>
<trkpt lat="34.966858" lon="137.832791">
<ele>141.140000</ele>
<time>2024-07-19T09:01:38Z</time>
<extensions>
<kashmir3d:speed>1.11</kashmir3d:speed>
</extensions>
</trkpt>
<trkpt lat="34.966788" lon="137.832736">
<ele>137.340000</ele>
<time>2024-07-19T09:01:53Z</time>
<extensions>
<kashmir3d:speed>0.64</kashmir3d:speed>
</extensions>
</trkpt>
<trkpt lat="34.966780" lon="137.832730">
<ele>137.340000</ele>
<time>2024-07-19T09:01:54Z</time>
<extensions>
<kashmir3d:speed>1.11</kashmir3d:speed>
</extensions>
</trkpt>
<trkpt lat="34.966780" lon="137.832730">
<ele>137.340000</ele>
<time>2024-07-19T09:01:54Z</time>
<extensions>
<kashmir3d:speed>0.00</kashmir3d:speed>
</extensions>
</trkpt>
<trkpt lat="34.966779" lon="137.832670">
<ele>137.340000</ele>
<time>2024-07-19T09:01:58Z</time>
<extensions>
<kashmir3d:speed>1.11</kashmir3d:speed>
</extensions>
</trkpt>
<trkpt lat="34.966777" lon="137.832584">
<ele>136.380000</ele>
<time>2024-07-19T09:02:06Z</time>
<extensions>
<kashmir3d:speed>1.11</kashmir3d:speed>
</extensions>
</trkpt>
<trkpt lat="34.966777" lon="137.832575">
<ele>135.770000</ele>
<time>2024-07-19T09:02:06Z</time>
<extensions>
<kashmir3d:speed>1.11</kashmir3d:speed>
</extensions>
</trkpt>
<trkpt lat="34.966777" lon="137.832575">
<ele>135.770000</ele>
<time>2024-07-19T09:02:06Z</time>
<extensions>
<kashmir3d:speed>0.00</kashmir3d:speed>
</extensions>
</trkpt>
<trkpt lat="34.966795" lon="137.832499">
<ele>136.120000</ele>
<time>2024-07-19T09:02:13Z</time>
<extensions>
<kashmir3d:speed>1.01</kashmir3d:speed>
</extensions>
</trkpt>
<trkpt lat="34.966815" lon="137.832413">
<ele>135.680000</ele>
<time>2024-07-19T09:02:21Z</time>
<extensions>
<kashmir3d:speed>1.11</kashmir3d:speed>
</extensions>
</trkpt>
<trkpt lat="34.966834" lon="137.832327">
<ele>135.040000</ele>
<time>2024-07-19T09:02:29Z</time>
<extensions>
<kashmir3d:speed>0.97</kashmir3d:speed>
</extensions>
</trkpt>
<trkpt lat="34.966834" lon="137.832327">
<ele>135.040000</ele>
<time>2024-07-19T09:02:29Z</time>
<extensions>
<kashmir3d:speed>0.00</kashmir3d:speed>
</extensions>
</trkpt>
<trkpt lat="34.966834" lon="137.832327">
<ele>135.040000</ele>
<time>2024-07-19T09:02:29Z</time>
<extensions>
<kashmir3d:speed>1.11</kashmir3d:speed>
</extensions>
</trkpt>
<trkpt lat="34.966865" lon="137.832241">
<ele>136.310000</ele>
<time>2024-07-19T09:02:39Z</time>
<extensions>
<kashmir3d:speed>0.88</kashmir3d:speed>
</extensions>
</trkpt>
<trkpt lat="34.966897" lon="137.832155">
<ele>134.210000</ele>
<time>2024-07-19T09:02:58Z</time>
<extensions>
<kashmir3d:speed>0.45</kashmir3d:speed>
</extensions>
</trkpt>
<trkpt lat="34.966920" lon="137.832090">
<ele>132.080000</ele>
<time>2024-07-19T09:03:15Z</time>
<extensions>
<kashmir3d:speed>0.37</kashmir3d:speed>
</extensions>
</trkpt>
<trkpt lat="34.966920" lon="137.832090">
<ele>132.080000</ele>
<time>2024-07-19T09:03:15Z</time>
<extensions>
<kashmir3d:speed>0.00</kashmir3d:speed>
</extensions>
</trkpt>
<trkpt lat="34.966915" lon="137.832069">
<ele>132.080000</ele>
<time>2024-07-19T09:03:17Z</time>
<extensions>
<kashmir3d:speed>1.11</kashmir3d:speed>
</extensions>
</trkpt>
<trkpt lat="34.966894" lon="137.831984">
<ele>129.680000</ele>
<time>2024-07-19T09:03:37Z</time>
<extensions>
<kashmir3d:speed>0.40</kashmir3d:speed>
</extensions>
</trkpt>
<trkpt lat="34.966873" lon="137.831898">
<ele>128.830000</ele>
<time>2024-07-19T09:03:45Z</time>
<extensions>
<kashmir3d:speed>1.11</kashmir3d:speed>
</extensions>
</trkpt>
<trkpt lat="34.966852" lon="137.831812">
<ele>123.430000</ele>
<time>2024-07-19T09:04:07Z</time>
<extensions>
<kashmir3d:speed>0.37</kashmir3d:speed>
</extensions>
</trkpt>
<trkpt lat="34.966839" lon="137.831758">
<ele>124.260000</ele>
<time>2024-07-19T09:04:19Z</time>
<extensions>
<kashmir3d:speed>0.43</kashmir3d:speed>
</extensions>
</trkpt>
<trkpt lat="34.966839" lon="137.831758">
<ele>124.260000</ele>
<time>2024-07-19T09:04:19Z</time>
<extensions>
<kashmir3d:speed>0.00</kashmir3d:speed>
</extensions>
</trkpt>
<trkpt lat="34.966835" lon="137.831726">
<ele>124.260000</ele>
<time>2024-07-19T09:04:21Z</time>
<extensions>
<kashmir3d:speed>1.11</kashmir3d:speed>
</extensions>
</trkpt>
<trkpt lat="34.966823" lon="137.831640">
<ele>127.730000</ele>
<time>2024-07-19T09:04:38Z</time>
<extensions>
<kashmir3d:speed>0.48</kashmir3d:speed>
</extensions>
</trkpt>
<trkpt lat="34.966821" lon="137.831625">
<ele>127.980000</ele>
<time>2024-07-19T09:04:40Z</time>
<extensions>
<kashmir3d:speed>0.82</kashmir3d:speed>
</extensions>
</trkpt>
<trkpt lat="34.966821" lon="137.831625">
<ele>127.980000</ele>
<time>2024-07-19T09:04:40Z</time>
<extensions>
<kashmir3d:speed>0.00</kashmir3d:speed>
</extensions>
</trkpt>
<trkpt lat="34.966872" lon="137.831554">
<ele>132.750000</ele>
<time>2024-07-19T09:04:47Z</time>
<extensions>
<kashmir3d:speed>1.11</kashmir3d:speed>
</extensions>
</trkpt>
<trkpt lat="34.966934" lon="137.831469">
<ele>132.250000</ele>
<time>2024-07-19T09:04:58Z</time>
<extensions>
<kashmir3d:speed>1.02</kashmir3d:speed>
</extensions>
</trkpt>
<trkpt lat="34.966996" lon="137.831383">
<ele>128.220000</ele>
<time>2024-07-19T09:05:29Z</time>
<extensions>
<kashmir3d:speed>0.33</kashmir3d:speed>
</extensions>
</trkpt>
<trkpt lat="34.967040" lon="137.831322">
<ele>127.180000</ele>
<time>2024-07-19T09:05:41Z</time>
<extensions>
<kashmir3d:speed>0.60</kashmir3d:speed>
</extensions>
</trkpt>
<trkpt lat="34.967040" lon="137.831322">
<ele>127.180000</ele>
<time>2024-07-19T09:05:41Z</time>
<extensions>
<kashmir3d:speed>0.00</kashmir3d:speed>
</extensions>
</trkpt>
<trkpt lat="34.967056" lon="137.831297">
<ele>127.180000</ele>
<time>2024-07-19T09:05:44Z</time>
<extensions>
<kashmir3d:speed>1.11</kashmir3d:speed>
</extensions>
</trkpt>
<trkpt lat="34.967109" lon="137.831211">
<ele>124.060000</ele>
<time>2024-07-19T09:05:58Z</time>
<extensions>
<kashmir3d:speed>0.68</kashmir3d:speed>
</extensions>
</trkpt>
<trkpt lat="34.967162" lon="137.831125">
<ele>121.380000</ele>
<time>2024-07-19T09:06:21Z</time>
<extensions>
<kashmir3d:speed>0.42</kashmir3d:speed>
</extensions>
</trkpt>
<trkpt lat="34.967176" lon="137.831102">
<ele>117.970000</ele>
<time>2024-07-19T09:06:30Z</time>
<extensions>
<kashmir3d:speed>0.31</kashmir3d:speed>
</extensions>
</trkpt>
</trkseg>
</trk>
</gpx>
